<?xml version="1.0" encoding="UTF-8" standalone="no" ?>
<gpx xmlns="http://www.topografix.com/GPX/1/1" xmlns:xsi="http://www.w3.org/2001/XMLSchema-instance" xsi:schemaLocation="http://www.topografix.com/GPX/1/1 http://www.topografix.com/GPX/1/1/gpx.xsd" version="1.1" creator="VisuGPX - https://www.visugpx.com">
  <metadata>
    <name>Rando des loups</name>
    <desc><![CDATA[Rando de 25 km le 18/03/2012]]></desc>
  </metadata>
  <trk>
    <name><![CDATA[2012-03-18T07:41:59Z]]></name>
    <trkseg>
      <trkpt lat="47.32691" lon="-0.34837">
        <ele>55.8937988</ele>
        <time>2012-03-18T07:41:59Z</time>
      </trkpt>
      <trkpt lat="47.32691" lon="-0.34837">
        <ele>55.8937988</ele>
        <time>2012-03-18T07:42:00Z</time>
      </trkpt>
      <trkpt lat="47.32691" lon="-0.34837">
        <ele>55.8937988</ele>
        <time>2012-03-18T07:42:05Z</time>
      </trkpt>
      <trkpt lat="47.32692" lon="-0.34837">
        <ele>54.932373</ele>
        <time>2012-03-18T07:42:13Z</time>
      </trkpt>
      <trkpt lat="47.32693" lon="-0.34837">
        <ele>54.4517822</ele>
        <time>2012-03-18T07:42:22Z</time>
      </trkpt>
      <trkpt lat="47.32693" lon="-0.34838">
        <ele>55.8937988</ele>
        <time>2012-03-18T07:42:30Z</time>
      </trkpt>
      <trkpt lat="47.32694" lon="-0.34838">
        <ele>56.8551025</ele>
        <time>2012-03-18T07:42:37Z</time>
      </trkpt>
      <trkpt lat="47.32694" lon="-0.34838">
        <ele>56.3745117</ele>
        <time>2012-03-18T07:42:40Z</time>
      </trkpt>
      <trkpt lat="47.32694" lon="-0.34837">
        <ele>56.8551025</ele>
        <time>2012-03-18T07:42:49Z</time>
      </trkpt>
      <trkpt lat="47.32692" lon="-0.34834">
        <ele>56.8551025</ele>
        <time>2012-03-18T07:42:52Z</time>
      </trkpt>
      <trkpt lat="47.32686" lon="-0.34826">
        <ele>56.3745117</ele>
        <time>2012-03-18T07:42:58Z</time>
      </trkpt>
      <trkpt lat="47.32685" lon="-0.34825">
        <ele>56.3745117</ele>
        <time>2012-03-18T07:42:59Z</time>
      </trkpt>
      <trkpt lat="47.32677" lon="-0.34826">
        <ele>55.8937988</ele>
        <time>2012-03-18T07:43:06Z</time>
      </trkpt>
      <trkpt lat="47.32666" lon="-0.34829">
        <ele>54.932373</ele>
        <time>2012-03-18T07:43:13Z</time>
      </trkpt>
      <trkpt lat="47.32662" lon="-0.34827">
        <ele>54.4517822</ele>
        <time>2012-03-18T07:43:16Z</time>
      </trkpt>
      <trkpt lat="47.32656" lon="-0.34821">
        <ele>54.932373</ele>
        <time>2012-03-18T07:43:20Z</time>
      </trkpt>
      <trkpt lat="47.32654" lon="-0.34803">
        <ele>55.4130859</ele>
        <time>2012-03-18T07:43:27Z</time>
      </trkpt>
      <trkpt lat="47.32652" lon="-0.34787">
        <ele>55.8937988</ele>
        <time>2012-03-18T07:43:33Z</time>
      </trkpt>
      <trkpt lat="47.32649" lon="-0.34759">
        <ele>56.3745117</ele>
        <time>2012-03-18T07:43:41Z</time>
      </trkpt>
      <trkpt lat="47.32646" lon="-0.34739">
        <ele>56.3745117</ele>
        <time>2012-03-18T07:43:47Z</time>
      </trkpt>
      <trkpt lat="47.32647" lon="-0.34721">
        <ele>56.3745117</ele>
        <time>2012-03-18T07:43:53Z</time>
      </trkpt>
      <trkpt lat="47.32655" lon="-0.34704">
        <ele>55.8937988</ele>
        <time>2012-03-18T07:43:59Z</time>
      </trkpt>
      <trkpt lat="47.32659" lon="-0.34685">
        <ele>55.8937988</ele>
        <time>2012-03-18T07:44:05Z</time>
      </trkpt>
      <trkpt lat="47.32661" lon="-0.34659">
        <ele>55.8937988</ele>
        <time>2012-03-18T07:44:12Z</time>
      </trkpt>
      <trkpt lat="47.32659" lon="-0.34631">
        <ele>56.3745117</ele>
        <time>2012-03-18T07:44:19Z</time>
      </trkpt>
      <trkpt lat="47.32657" lon="-0.346">
        <ele>57.8165283</ele>
        <time>2012-03-18T07:44:26Z</time>
      </trkpt>
      <trkpt lat="47.32654" lon="-0.34571">
        <ele>57.3358154</ele>
        <time>2012-03-18T07:44:33Z</time>
      </trkpt>
      <trkpt lat="47.32652" lon="-0.34539">
        <ele>57.3358154</ele>
        <time>2012-03-18T07:44:41Z</time>
      </trkpt>
      <trkpt lat="47.32644" lon="-0.34499">
        <ele>57.3358154</ele>
        <time>2012-03-18T07:44:51Z</time>
      </trkpt>
      <trkpt lat="47.32633" lon="-0.34467">
        <ele>57.3358154</ele>
        <time>2012-03-18T07:44:58Z</time>
      </trkpt>
      <trkpt lat="47.32612" lon="-0.34431">
        <ele>56.8551025</ele>
        <time>2012-03-18T07:45:07Z</time>
      </trkpt>
      <trkpt lat="47.32596" lon="-0.34394">
        <ele>55.8937988</ele>
        <time>2012-03-18T07:45:15Z</time>
      </trkpt>
      <trkpt lat="47.32588" lon="-0.34354">
        <ele>54.4517822</ele>
        <time>2012-03-18T07:45:23Z</time>
      </trkpt>
      <trkpt lat="47.32578" lon="-0.3431">
        <ele>56.8551025</ele>
        <time>2012-03-18T07:45:32Z</time>
      </trkpt>
      <trkpt lat="47.32568" lon="-0.34256">
        <ele>56.8551025</ele>
        <time>2012-03-18T07:45:42Z</time>
      </trkpt>
      <trkpt lat="47.32561" lon="-0.34213">
        <ele>56.8551025</ele>
        <time>2012-03-18T07:45:50Z</time>
      </trkpt>
      <trkpt lat="47.32552" lon="-0.34164">
        <ele>57.3358154</ele>
        <time>2012-03-18T07:46:00Z</time>
      </trkpt>
      <trkpt lat="47.32546" lon="-0.34114">
        <ele>57.8165283</ele>
        <time>2012-03-18T07:46:10Z</time>
      </trkpt>
      <trkpt lat="47.32542" lon="-0.34064">
        <ele>57.8165283</ele>
        <time>2012-03-18T07:46:20Z</time>
      </trkpt>
      <trkpt lat="47.32537" lon="-0.34024">
        <ele>60.2197266</ele>
        <time>2012-03-18T07:46:29Z</time>
      </trkpt>
      <trkpt lat="47.32536" lon="-0.33986">
        <ele>60.7003174</ele>
        <time>2012-03-18T07:46:37Z</time>
      </trkpt>
      <trkpt lat="47.32536" lon="-0.33954">
        <ele>62.142334</ele>
        <time>2012-03-18T07:46:44Z</time>
      </trkpt>
      <trkpt lat="47.32536" lon="-0.3395">
        <ele>62.142334</ele>
        <time>2012-03-18T07:46:45Z</time>
      </trkpt>
      <trkpt lat="47.32545" lon="-0.33942">
        <ele>62.142334</ele>
        <time>2012-03-18T07:46:49Z</time>
      </trkpt>
      <trkpt lat="47.3255" lon="-0.33943">
        <ele>62.6229248</ele>
        <time>2012-03-18T07:46:51Z</time>
      </trkpt>
      <trkpt lat="47.32575" lon="-0.33945">
        <ele>63.5843506</ele>
        <time>2012-03-18T07:47:00Z</time>
      </trkpt>
      <trkpt lat="47.32606" lon="-0.33947">
        <ele>63.5843506</ele>
        <time>2012-03-18T07:47:09Z</time>
      </trkpt>
      <trkpt lat="47.32639" lon="-0.3395">
        <ele>63.1036377</ele>
        <time>2012-03-18T07:47:18Z</time>
      </trkpt>
      <trkpt lat="47.32686" lon="-0.33954">
        <ele>63.1036377</ele>
        <time>2012-03-18T07:47:30Z</time>
      </trkpt>
      <trkpt lat="47.32717" lon="-0.33958">
        <ele>61.6617432</ele>
        <time>2012-03-18T07:47:38Z</time>
      </trkpt>
      <trkpt lat="47.32747" lon="-0.33959">
        <ele>61.1810303</ele>
        <time>2012-03-18T07:47:46Z</time>
      </trkpt>
      <trkpt lat="47.32785" lon="-0.33959">
        <ele>60.7003174</ele>
        <time>2012-03-18T07:47:56Z</time>
      </trkpt>
      <trkpt lat="47.32826" lon="-0.33959">
        <ele>61.1810303</ele>
        <time>2012-03-18T07:48:07Z</time>
      </trkpt>
      <trkpt lat="47.32856" lon="-0.33959">
        <ele>62.142334</ele>
        <time>2012-03-18T07:48:16Z</time>
      </trkpt>
      <trkpt lat="47.32874" lon="-0.33961">
        <ele>62.6229248</ele>
        <time>2012-03-18T07:48:22Z</time>
      </trkpt>
      <trkpt lat="47.32895" lon="-0.33965">
        <ele>65.9876709</ele>
        <time>2012-03-18T07:48:29Z</time>
      </trkpt>
      <trkpt lat="47.32916" lon="-0.33967">
        <ele>67.4296875</ele>
        <time>2012-03-18T07:48:36Z</time>
      </trkpt>
      <trkpt lat="47.32918" lon="-0.33966">
        <ele>67.4296875</ele>
        <time>2012-03-18T07:48:37Z</time>
      </trkpt>
      <trkpt lat="47.32924" lon="-0.33948">
        <ele>67.9102783</ele>
        <time>2012-03-18T07:48:42Z</time>
      </trkpt>
      <trkpt lat="47.32924" lon="-0.33944">
        <ele>68.3908691</ele>
        <time>2012-03-18T07:48:43Z</time>
      </trkpt>
      <trkpt lat="47.32926" lon="-0.33927">
        <ele>70.3134766</ele>
        <time>2012-03-18T07:48:47Z</time>
      </trkpt>
      <trkpt lat="47.32936" lon="-0.33921">
        <ele>69.3522949</ele>
        <time>2012-03-18T07:48:51Z</time>
      </trkpt>
      <trkpt lat="47.32942" lon="-0.33925">
        <ele>69.8328857</ele>
        <time>2012-03-18T07:48:54Z</time>
      </trkpt>
      <trkpt lat="47.32956" lon="-0.33948">
        <ele>70.3134766</ele>
        <time>2012-03-18T07:49:02Z</time>
      </trkpt>
      <trkpt lat="47.32967" lon="-0.33952">
        <ele>70.3134766</ele>
        <time>2012-03-18T07:49:06Z</time>
      </trkpt>
      <trkpt lat="47.32985" lon="-0.33945">
        <ele>70.7941895</ele>
        <time>2012-03-18T07:49:13Z</time>
      </trkpt>
      <trkpt lat="47.33005" lon="-0.33935">
        <ele>69.3522949</ele>
        <time>2012-03-18T07:49:21Z</time>
      </trkpt>
      <trkpt lat="47.33026" lon="-0.33924">
        <ele>68.3908691</ele>
        <time>2012-03-18T07:49:29Z</time>
      </trkpt>
      <trkpt lat="47.33046" lon="-0.33913">
        <ele>67.4296875</ele>
        <time>2012-03-18T07:49:35Z</time>
      </trkpt>
      <trkpt lat="47.33064" lon="-0.33902">
        <ele>65.5070801</ele>
        <time>2012-03-18T07:49:40Z</time>
      </trkpt>
      <trkpt lat="47.33087" lon="-0.3389">
        <ele>64.5456543</ele>
        <time>2012-03-18T07:49:46Z</time>
      </trkpt>
      <trkpt lat="47.33116" lon="-0.33877">
        <ele>65.5070801</ele>
        <time>2012-03-18T07:49:55Z</time>
      </trkpt>
      <trkpt lat="47.3314" lon="-0.33868">
        <ele>67.4296875</ele>
        <time>2012-03-18T07:50:03Z</time>
      </trkpt>
      <trkpt lat="47.33143" lon="-0.33867">
        <ele>67.9102783</ele>
        <time>2012-03-18T07:50:04Z</time>
      </trkpt>
      <trkpt lat="47.33146" lon="-0.33866">
        <ele>68.3908691</ele>
        <time>2012-03-18T07:50:05Z</time>
      </trkpt>
      <trkpt lat="47.33149" lon="-0.33865">
        <ele>68.871582</ele>
        <time>2012-03-18T07:50:06Z</time>
      </trkpt>
      <trkpt lat="47.33158" lon="-0.33861">
        <ele>70.7941895</ele>
        <time>2012-03-18T07:50:09Z</time>
      </trkpt>
      <trkpt lat="47.33176" lon="-0.33854">
        <ele>71.2749023</ele>
        <time>2012-03-18T07:50:15Z</time>
      </trkpt>
      <trkpt lat="47.33197" lon="-0.33849">
        <ele>75.1202393</ele>
        <time>2012-03-18T07:50:22Z</time>
      </trkpt>
      <trkpt lat="47.33214" lon="-0.33851">
        <ele>78.0040283</ele>
        <time>2012-03-18T07:50:28Z</time>
      </trkpt>
      <trkpt lat="47.33229" lon="-0.33849">
        <ele>82.810791</ele>
        <time>2012-03-18T07:50:34Z</time>
      </trkpt>
      <trkpt lat="47.33245" lon="-0.33851">
        <ele>87.6171875</ele>
        <time>2012-03-18T07:50:39Z</time>
      </trkpt>
      <trkpt lat="47.33264" lon="-0.33857">
        <ele>90.0206299</ele>
        <time>2012-03-18T07:50:45Z</time>
      </trkpt>
      <trkpt lat="47.33278" lon="-0.33871">
        <ele>90.0206299</ele>
        <time>2012-03-18T07:50:50Z</time>
      </trkpt>
      <trkpt lat="47.33291" lon="-0.33886">
        <ele>87.6171875</ele>
        <time>2012-03-18T07:50:55Z</time>
      </trkpt>
      <trkpt lat="47.33294" lon="-0.3389">
        <ele>86.6560059</ele>
        <time>2012-03-18T07:50:56Z</time>
      </trkpt>
      <trkpt lat="47.33309" lon="-0.33906">
        <ele>84.2526855</ele>
        <time>2012-03-18T07:51:02Z</time>
      </trkpt>
      <trkpt lat="47.33322" lon="-0.33917">
        <ele>84.7333984</ele>
        <time>2012-03-18T07:51:07Z</time>
      </trkpt>
      <trkpt lat="47.33331" lon="-0.33927">
        <ele>84.7333984</ele>
        <time>2012-03-18T07:51:12Z</time>
      </trkpt>
      <trkpt lat="47.3334" lon="-0.33938">
        <ele>84.2526855</ele>
        <time>2012-03-18T07:51:16Z</time>
      </trkpt>
      <trkpt lat="47.33355" lon="-0.33951">
        <ele>83.2913818</ele>
        <time>2012-03-18T07:51:22Z</time>
      </trkpt>
      <trkpt lat="47.33367" lon="-0.33955">
        <ele>77.0428467</ele>
        <time>2012-03-18T07:51:27Z</time>
      </trkpt>
      <trkpt lat="47.33379" lon="-0.3396">
        <ele>72.7169189</ele>
        <time>2012-03-18T07:51:32Z</time>
      </trkpt>
      <trkpt lat="47.33395" lon="-0.3397">
        <ele>78.0040283</ele>
        <time>2012-03-18T07:51:36Z</time>
      </trkpt>
      <trkpt lat="47.33402" lon="-0.33975">
        <ele>77.5234375</ele>
        <time>2012-03-18T07:51:38Z</time>
      </trkpt>
      <trkpt lat="47.33414" lon="-0.33966">
        <ele>75.6008301</ele>
        <time>2012-03-18T07:51:43Z</time>
      </trkpt>
      <trkpt lat="47.33417" lon="-0.3396">
        <ele>74.1588135</ele>
        <time>2012-03-18T07:51:45Z</time>
      </trkpt>
      <trkpt lat="47.33428" lon="-0.33944">
        <ele>72.2362061</ele>
        <time>2012-03-18T07:51:51Z</time>
      </trkpt>
      <trkpt lat="47.33438" lon="-0.33931">
        <ele>74.6395264</ele>
        <time>2012-03-18T07:51:56Z</time>
      </trkpt>
      <trkpt lat="47.3345" lon="-0.33912">
        <ele>74.6395264</ele>
        <time>2012-03-18T07:52:03Z</time>
      </trkpt>
      <trkpt lat="47.33459" lon="-0.33897">
        <ele>74.1588135</ele>
        <time>2012-03-18T07:52:08Z</time>
      </trkpt>
      <trkpt lat="47.3347" lon="-0.3388">
        <ele>76.5621338</ele>
        <time>2012-03-18T07:52:14Z</time>
      </trkpt>
      <trkpt lat="47.3348" lon="-0.33858">
        <ele>78.4847412</ele>
        <time>2012-03-18T07:52:21Z</time>
      </trkpt>
      <trkpt lat="47.33493" lon="-0.33836">
        <ele>77.5234375</ele>
        <time>2012-03-18T07:52:28Z</time>
      </trkpt>
      <trkpt lat="47.33501" lon="-0.33824">
        <ele>76.5621338</ele>
        <time>2012-03-18T07:52:32Z</time>
      </trkpt>
      <trkpt lat="47.33512" lon="-0.33798">
        <ele>78.0040283</ele>
        <time>2012-03-18T07:52:40Z</time>
      </trkpt>
      <trkpt lat="47.33521" lon="-0.33777">
        <ele>78.9654541</ele>
        <time>2012-03-18T07:52:46Z</time>
      </trkpt>
      <trkpt lat="47.3354" lon="-0.33747">
        <ele>79.9266357</ele>
        <time>2012-03-18T07:52:57Z</time>
      </trkpt>
      <trkpt lat="47.33556" lon="-0.3373">
        <ele>81.3687744</ele>
        <time>2012-03-18T07:53:04Z</time>
      </trkpt>
      <trkpt lat="47.33573" lon="-0.33705">
        <ele>82.810791</ele>
        <time>2012-03-18T07:53:13Z</time>
      </trkpt>
      <trkpt lat="47.33582" lon="-0.33685">
        <ele>84.7333984</ele>
        <time>2012-03-18T07:53:19Z</time>
      </trkpt>
      <trkpt lat="47.33583" lon="-0.33682">
        <ele>85.2139893</ele>
        <time>2012-03-18T07:53:20Z</time>
      </trkpt>
      <trkpt lat="47.3358" lon="-0.33656">
        <ele>87.6171875</ele>
        <time>2012-03-18T07:53:27Z</time>
      </trkpt>
      <trkpt lat="47.3357" lon="-0.3364">
        <ele>88.5787354</ele>
        <time>2012-03-18T07:53:34Z</time>
      </trkpt>
      <trkpt lat="47.33552" lon="-0.33623">
        <ele>86.6560059</ele>
        <time>2012-03-18T07:53:44Z</time>
      </trkpt>
      <trkpt lat="47.33533" lon="-0.33604">
        <ele>86.6560059</ele>
        <time>2012-03-18T07:53:54Z</time>
      </trkpt>
      <trkpt lat="47.33524" lon="-0.33593">
        <ele>85.6945801</ele>
        <time>2012-03-18T07:54:00Z</time>
      </trkpt>
      <trkpt lat="47.33512" lon="-0.3358">
        <ele>84.2526855</ele>
        <time>2012-03-18T07:54:06Z</time>
      </trkpt>
      <trkpt lat="47.335" lon="-0.33562">
        <ele>86.6560059</ele>
        <time>2012-03-18T07:54:12Z</time>
      </trkpt>
      <trkpt lat="47.33497" lon="-0.33539">
        <ele>87.6171875</ele>
        <time>2012-03-18T07:54:18Z</time>
      </trkpt>
      <trkpt lat="47.33497" lon="-0.33504">
        <ele>90.0206299</ele>
        <time>2012-03-18T07:54:27Z</time>
      </trkpt>
      <trkpt lat="47.33504" lon="-0.33493">
        <ele>90.9819336</ele>
        <time>2012-03-18T07:54:31Z</time>
      </trkpt>
      <trkpt lat="47.33518" lon="-0.3348">
        <ele>90.9819336</ele>
        <time>2012-03-18T07:54:37Z</time>
      </trkpt>
      <trkpt lat="47.33532" lon="-0.33468">
        <ele>90.5013428</ele>
        <time>2012-03-18T07:54:43Z</time>
      </trkpt>
      <trkpt lat="47.33541" lon="-0.33456">
        <ele>89.539917</ele>
        <time>2012-03-18T07:54:48Z</time>
      </trkpt>
      <trkpt lat="47.33552" lon="-0.33446">
        <ele>88.5787354</ele>
        <time>2012-03-18T07:54:53Z</time>
      </trkpt>
      <trkpt lat="47.33569" lon="-0.33431">
        <ele>88.0980225</ele>
        <time>2012-03-18T07:55:00Z</time>
      </trkpt>
      <trkpt lat="47.3359" lon="-0.33416">
        <ele>88.5787354</ele>
        <time>2012-03-18T07:55:08Z</time>
      </trkpt>
      <trkpt lat="47.3361" lon="-0.33401">
        <ele>87.6171875</ele>
        <time>2012-03-18T07:55:15Z</time>
      </trkpt>
      <trkpt lat="47.33635" lon="-0.33383">
        <ele>87.1365967</ele>
        <time>2012-03-18T07:55:24Z</time>
      </trkpt>
      <trkpt lat="47.33654" lon="-0.33367">
        <ele>87.1365967</ele>
        <time>2012-03-18T07:55:31Z</time>
      </trkpt>
      <trkpt lat="47.33674" lon="-0.33347">
        <ele>87.6171875</ele>
        <time>2012-03-18T07:55:38Z</time>
      </trkpt>
      <trkpt lat="47.33692" lon="-0.33332">
        <ele>87.6171875</ele>
        <time>2012-03-18T07:55:44Z</time>
      </trkpt>
      <trkpt lat="47.33707" lon="-0.33319">
        <ele>87.6171875</ele>
        <time>2012-03-18T07:55:50Z</time>
      </trkpt>
      <trkpt lat="47.33726" lon="-0.33305">
        <ele>87.6171875</ele>
        <time>2012-03-18T07:55:57Z</time>
      </trkpt>
      <trkpt lat="47.33739" lon="-0.33296">
        <ele>87.6171875</ele>
        <time>2012-03-18T07:56:02Z</time>
      </trkpt>
      <trkpt lat="47.33757" lon="-0.33281">
        <ele>88.0980225</ele>
        <time>2012-03-18T07:56:09Z</time>
      </trkpt>
      <trkpt lat="47.33775" lon="-0.33267">
        <ele>88.0980225</ele>
        <time>2012-03-18T07:56:16Z</time>
      </trkpt>
      <trkpt lat="47.33799" lon="-0.33249">
        <ele>88.0980225</ele>
        <time>2012-03-18T07:56:24Z</time>
      </trkpt>
      <trkpt lat="47.33816" lon="-0.33237">
        <ele>88.5787354</ele>
        <time>2012-03-18T07:56:30Z</time>
      </trkpt>
      <trkpt lat="47.33844" lon="-0.33215">
        <ele>89.539917</ele>
        <time>2012-03-18T07:56:40Z</time>
      </trkpt>
      <trkpt lat="47.33864" lon="-0.33198">
        <ele>89.0593262</ele>
        <time>2012-03-18T07:56:47Z</time>
      </trkpt>
      <trkpt lat="47.33888" lon="-0.33179">
        <ele>88.5787354</ele>
        <time>2012-03-18T07:56:55Z</time>
      </trkpt>
      <trkpt lat="47.33916" lon="-0.33158">
        <ele>87.6171875</ele>
        <time>2012-03-18T07:57:04Z</time>
      </trkpt>
      <trkpt lat="47.33931" lon="-0.33146">
        <ele>87.1365967</ele>
        <time>2012-03-18T07:57:09Z</time>
      </trkpt>
      <trkpt lat="47.33935" lon="-0.33144">
        <ele>86.6560059</ele>
        <time>2012-03-18T07:57:10Z</time>
      </trkpt>
      <trkpt lat="47.33946" lon="-0.33152">
        <ele>86.6560059</ele>
        <time>2012-03-18T07:57:14Z</time>
      </trkpt>
      <trkpt lat="47.33954" lon="-0.33179">
        <ele>86.6560059</ele>
        <time>2012-03-18T07:57:20Z</time>
      </trkpt>
      <trkpt lat="47.33964" lon="-0.33205">
        <ele>86.6560059</ele>
        <time>2012-03-18T07:57:27Z</time>
      </trkpt>
      <trkpt lat="47.33976" lon="-0.33239">
        <ele>86.6560059</ele>
        <time>2012-03-18T07:57:36Z</time>
      </trkpt>
      <trkpt lat="47.33985" lon="-0.33266">
        <ele>87.1365967</ele>
        <time>2012-03-18T07:57:43Z</time>
      </trkpt>
      <trkpt lat="47.33992" lon="-0.33295">
        <ele>87.6171875</ele>
        <time>2012-03-18T07:57:50Z</time>
      </trkpt>
      <trkpt lat="47.33999" lon="-0.33322">
        <ele>87.1365967</ele>
        <time>2012-03-18T07:57:57Z</time>
      </trkpt>
      <trkpt lat="47.34006" lon="-0.33356">
        <ele>87.1365967</ele>
        <time>2012-03-18T07:58:06Z</time>
      </trkpt>
      <trkpt lat="47.34013" lon="-0.33385">
        <ele>87.6171875</ele>
        <time>2012-03-18T07:58:13Z</time>
      </trkpt>
      <trkpt lat="47.34017" lon="-0.33419">
        <ele>87.6171875</ele>
        <time>2012-03-18T07:58:21Z</time>
      </trkpt>
      <trkpt lat="47.34021" lon="-0.33454">
        <ele>86.175293</ele>
        <time>2012-03-18T07:58:29Z</time>
      </trkpt>
      <trkpt lat="47.34022" lon="-0.33484">
        <ele>85.2139893</ele>
        <time>2012-03-18T07:58:36Z</time>
      </trkpt>
      <trkpt lat="47.34025" lon="-0.3351">
        <ele>86.175293</ele>
        <time>2012-03-18T07:58:42Z</time>
      </trkpt>
      <trkpt lat="47.34028" lon="-0.33545">
        <ele>87.1365967</ele>
        <time>2012-03-18T07:58:50Z</time>
      </trkpt>
      <trkpt lat="47.3403" lon="-0.33587">
        <ele>87.1365967</ele>
        <time>2012-03-18T07:58:59Z</time>
      </trkpt>
      <trkpt lat="47.3403" lon="-0.33621">
        <ele>88.0980225</ele>
        <time>2012-03-18T07:59:06Z</time>
      </trkpt>
      <trkpt lat="47.34029" lon="-0.33655">
        <ele>88.0980225</ele>
        <time>2012-03-18T07:59:13Z</time>
      </trkpt>
      <trkpt lat="47.3403" lon="-0.33704">
        <ele>87.1365967</ele>
        <time>2012-03-18T07:59:23Z</time>
      </trkpt>
      <trkpt lat="47.34029" lon="-0.33753">
        <ele>86.6560059</ele>
        <time>2012-03-18T07:59:33Z</time>
      </trkpt>
      <trkpt lat="47.34028" lon="-0.33792">
        <ele>87.1365967</ele>
        <time>2012-03-18T07:59:41Z</time>
      </trkpt>
      <trkpt lat="47.34025" lon="-0.33842">
        <ele>86.6560059</ele>
        <time>2012-03-18T07:59:51Z</time>
      </trkpt>
      <trkpt lat="47.34023" lon="-0.33882">
        <ele>85.6945801</ele>
        <time>2012-03-18T07:59:59Z</time>
      </trkpt>
      <trkpt lat="47.34022" lon="-0.33921">
        <ele>85.6945801</ele>
        <time>2012-03-18T08:00:06Z</time>
      </trkpt>
      <trkpt lat="47.3402" lon="-0.33973">
        <ele>85.2139893</ele>
        <time>2012-03-18T08:00:15Z</time>
      </trkpt>
      <trkpt lat="47.34019" lon="-0.34019">
        <ele>87.6171875</ele>
        <time>2012-03-18T08:00:23Z</time>
      </trkpt>
      <trkpt lat="47.34019" lon="-0.34051">
        <ele>87.1365967</ele>
        <time>2012-03-18T08:00:29Z</time>
      </trkpt>
      <trkpt lat="47.34017" lon="-0.34083">
        <ele>86.175293</ele>
        <time>2012-03-18T08:00:35Z</time>
      </trkpt>
      <trkpt lat="47.34025" lon="-0.34104">
        <ele>87.6171875</ele>
        <time>2012-03-18T08:00:40Z</time>
      </trkpt>
      <trkpt lat="47.34028" lon="-0.34107">
        <ele>87.6171875</ele>
        <time>2012-03-18T08:00:41Z</time>
      </trkpt>
      <trkpt lat="47.34044" lon="-0.34124">
        <ele>89.0593262</ele>
        <time>2012-03-18T08:00:47Z</time>
      </trkpt>
      <trkpt lat="47.3406" lon="-0.34141">
        <ele>89.539917</ele>
        <time>2012-03-18T08:00:53Z</time>
      </trkpt>
      <trkpt lat="47.34073" lon="-0.34157">
        <ele>89.0593262</ele>
        <time>2012-03-18T08:00:58Z</time>
      </trkpt>
      <trkpt lat="47.34086" lon="-0.34174">
        <ele>89.539917</ele>
        <time>2012-03-18T08:01:03Z</time>
      </trkpt>
      <trkpt lat="47.341" lon="-0.34195">
        <ele>90.0206299</ele>
        <time>2012-03-18T08:01:09Z</time>
      </trkpt>
      <trkpt lat="47.34111" lon="-0.34219">
        <ele>90.5013428</ele>
        <time>2012-03-18T08:01:15Z</time>
      </trkpt>
      <trkpt lat="47.34122" lon="-0.34237">
        <ele>90.5013428</ele>
        <time>2012-03-18T08:01:20Z</time>
      </trkpt>
      <trkpt lat="47.34131" lon="-0.34257">
        <ele>89.539917</ele>
        <time>2012-03-18T08:01:25Z</time>
      </trkpt>
      <trkpt lat="47.3414" lon="-0.34276">
        <ele>89.0593262</ele>
        <time>2012-03-18T08:01:30Z</time>
      </trkpt>
      <trkpt lat="47.34153" lon="-0.34302">
        <ele>89.539917</ele>
        <time>2012-03-18T08:01:36Z</time>
      </trkpt>
      <trkpt lat="47.34162" lon="-0.3432">
        <ele>89.0593262</ele>
        <time>2012-03-18T08:01:40Z</time>
      </trkpt>
      <trkpt lat="47.3418" lon="-0.34346">
        <ele>88.5787354</ele>
        <time>2012-03-18T08:01:47Z</time>
      </trkpt>
      <trkpt lat="47.34192" lon="-0.34368">
        <ele>88.0980225</ele>
        <time>2012-03-18T08:01:53Z</time>
      </trkpt>
      <trkpt lat="47.34205" lon="-0.34395">
        <ele>89.0593262</ele>
        <time>2012-03-18T08:02:00Z</time>
      </trkpt>
      <trkpt lat="47.34222" lon="-0.3443">
        <ele>89.539917</ele>
        <time>2012-03-18T08:02:09Z</time>
      </trkpt>
      <trkpt lat="47.34233" lon="-0.34453">
        <ele>90.5013428</ele>
        <time>2012-03-18T08:02:15Z</time>
      </trkpt>
      <trkpt lat="47.34249" lon="-0.34484">
        <ele>90.5013428</ele>
        <time>2012-03-18T08:02:23Z</time>
      </trkpt>
      <trkpt lat="47.34262" lon="-0.34509">
        <ele>89.539917</ele>
        <time>2012-03-18T08:02:30Z</time>
      </trkpt>
      <trkpt lat="47.34279" lon="-0.34538">
        <ele>89.539917</ele>
        <time>2012-03-18T08:02:38Z</time>
      </trkpt>
      <trkpt lat="47.34294" lon="-0.34574">
        <ele>87.1365967</ele>
        <time>2012-03-18T08:02:47Z</time>
      </trkpt>
      <trkpt lat="47.34302" lon="-0.34591">
        <ele>85.2139893</ele>
        <time>2012-03-18T08:02:51Z</time>
      </trkpt>
      <trkpt lat="47.34312" lon="-0.34613">
        <ele>82.3300781</ele>
        <time>2012-03-18T08:02:55Z</time>
      </trkpt>
      <trkpt lat="47.34316" lon="-0.34619">
        <ele>81.8493652</ele>
        <time>2012-03-18T08:02:56Z</time>
      </trkpt>
      <trkpt lat="47.34324" lon="-0.34629">
        <ele>80.4074707</ele>
        <time>2012-03-18T08:02:58Z</time>
      </trkpt>
      <trkpt lat="47.3434" lon="-0.34652">
        <ele>77.0428467</ele>
        <time>2012-03-18T08:03:03Z</time>
      </trkpt>
      <trkpt lat="47.3435" lon="-0.34651">
        <ele>74.6395264</ele>
        <time>2012-03-18T08:03:07Z</time>
      </trkpt>
      <trkpt lat="47.34361" lon="-0.34639">
        <ele>73.6782227</ele>
        <time>2012-03-18T08:03:12Z</time>
      </trkpt>
      <trkpt lat="47.34371" lon="-0.34626">
        <ele>73.6782227</ele>
        <time>2012-03-18T08:03:17Z</time>
      </trkpt>
      <trkpt lat="47.34385" lon="-0.34606">
        <ele>72.7169189</ele>
        <time>2012-03-18T08:03:23Z</time>
      </trkpt>
      <trkpt lat="47.34402" lon="-0.34578">
        <ele>72.7169189</ele>
        <time>2012-03-18T08:03:30Z</time>
      </trkpt>
      <trkpt lat="47.3442" lon="-0.34542">
        <ele>73.6782227</ele>
        <time>2012-03-18T08:03:38Z</time>
      </trkpt>
      <trkpt lat="47.3444" lon="-0.34497">
        <ele>72.7169189</ele>
        <time>2012-03-18T08:03:48Z</time>
      </trkpt>
      <trkpt lat="47.34453" lon="-0.34465">
        <ele>71.7554932</ele>
        <time>2012-03-18T08:03:54Z</time>
      </trkpt>
      <trkpt lat="47.34462" lon="-0.3444">
        <ele>71.7554932</ele>
        <time>2012-03-18T08:03:58Z</time>
      </trkpt>
      <trkpt lat="47.34485" lon="-0.344">
        <ele>69.3522949</ele>
        <time>2012-03-18T08:04:06Z</time>
      </trkpt>
      <trkpt lat="47.34507" lon="-0.34369">
        <ele>67.9102783</ele>
        <time>2012-03-18T08:04:13Z</time>
      </trkpt>
      <trkpt lat="47.34534" lon="-0.34333">
        <ele>68.3908691</ele>
        <time>2012-03-18T08:04:21Z</time>
      </trkpt>
      <trkpt lat="47.34549" lon="-0.34315">
        <ele>68.871582</ele>
        <time>2012-03-18T08:04:26Z</time>
      </trkpt>
      <trkpt lat="47.34562" lon="-0.34298">
        <ele>70.7941895</ele>
        <time>2012-03-18T08:04:31Z</time>
      </trkpt>
      <trkpt lat="47.34575" lon="-0.34282">
        <ele>72.2362061</ele>
        <time>2012-03-18T08:04:36Z</time>
      </trkpt>
      <trkpt lat="47.34588" lon="-0.34265">
        <ele>75.1202393</ele>
        <time>2012-03-18T08:04:42Z</time>
      </trkpt>
      <trkpt lat="47.3459" lon="-0.34248">
        <ele>77.0428467</ele>
        <time>2012-03-18T08:04:46Z</time>
      </trkpt>
      <trkpt lat="47.34582" lon="-0.3423">
        <ele>78.0040283</ele>
        <time>2012-03-18T08:04:51Z</time>
      </trkpt>
      <trkpt lat="47.3457" lon="-0.34199">
        <ele>78.9654541</ele>
        <time>2012-03-18T08:04:59Z</time>
      </trkpt>
      <trkpt lat="47.34556" lon="-0.34171">
        <ele>81.8493652</ele>
        <time>2012-03-18T08:05:06Z</time>
      </trkpt>
      <trkpt lat="47.34544" lon="-0.34147">
        <ele>83.7719727</ele>
        <time>2012-03-18T08:05:12Z</time>
      </trkpt>
      <trkpt lat="47.3453" lon="-0.34117">
        <ele>83.7719727</ele>
        <time>2012-03-18T08:05:19Z</time>
      </trkpt>
      <trkpt lat="47.34512" lon="-0.3409">
        <ele>82.810791</ele>
        <time>2012-03-18T08:05:26Z</time>
      </trkpt>
      <trkpt lat="47.34493" lon="-0.34068">
        <ele>79.9266357</ele>
        <time>2012-03-18T08:05:33Z</time>
      </trkpt>
      <trkpt lat="47.34485" lon="-0.34057">
        <ele>78.9654541</ele>
        <time>2012-03-18T08:05:36Z</time>
      </trkpt>
      <trkpt lat="47.34489" lon="-0.34038">
        <ele>78.9654541</ele>
        <time>2012-03-18T08:05:40Z</time>
      </trkpt>
      <trkpt lat="47.34495" lon="-0.34029">
        <ele>80.4074707</ele>
        <time>2012-03-18T08:05:43Z</time>
      </trkpt>
      <trkpt lat="47.34505" lon="-0.34">
        <ele>81.8493652</ele>
        <time>2012-03-18T08:05:49Z</time>
      </trkpt>
      <trkpt lat="47.34499" lon="-0.33977">
        <ele>81.8493652</ele>
        <time>2012-03-18T08:05:54Z</time>
      </trkpt>
      <trkpt lat="47.34492" lon="-0.3395">
        <ele>82.3300781</ele>
        <time>2012-03-18T08:05:59Z</time>
      </trkpt>
      <trkpt lat="47.34482" lon="-0.33908">
        <ele>84.2526855</ele>
        <time>2012-03-18T08:06:07Z</time>
      </trkpt>
      <trkpt lat="47.34474" lon="-0.33877">
        <ele>85.2139893</ele>
        <time>2012-03-18T08:06:13Z</time>
      </trkpt>
      <trkpt lat="47.34462" lon="-0.33818">
        <ele>84.7333984</ele>
        <time>2012-03-18T08:06:23Z</time>
      </trkpt>
      <trkpt lat="47.34456" lon="-0.33775">
        <ele>83.7719727</ele>
        <time>2012-03-18T08:06:30Z</time>
      </trkpt>
      <trkpt lat="47.34456" lon="-0.33714">
        <ele>81.3687744</ele>
        <time>2012-03-18T08:06:39Z</time>
      </trkpt>
      <trkpt lat="47.34458" lon="-0.33672">
        <ele>81.3687744</ele>
        <time>2012-03-18T08:06:44Z</time>
      </trkpt>
      <trkpt lat="47.34461" lon="-0.33642">
        <ele>81.3687744</ele>
        <time>2012-03-18T08:06:47Z</time>
      </trkpt>
      <trkpt lat="47.34462" lon="-0.33588">
        <ele>80.8881836</ele>
        <time>2012-03-18T08:06:52Z</time>
      </trkpt>
      <trkpt lat="47.34454" lon="-0.33538">
        <ele>79.9266357</ele>
        <time>2012-03-18T08:06:58Z</time>
      </trkpt>
      <trkpt lat="47.34451" lon="-0.33519">
        <ele>79.4460449</ele>
        <time>2012-03-18T08:07:01Z</time>
      </trkpt>
      <trkpt lat="47.34453" lon="-0.33484">
        <ele>75.6008301</ele>
        <time>2012-03-18T08:07:06Z</time>
      </trkpt>
      <trkpt lat="47.3446" lon="-0.33435">
        <ele>71.2749023</ele>
        <time>2012-03-18T08:07:13Z</time>
      </trkpt>
      <trkpt lat="47.34462" lon="-0.33421">
        <ele>70.7941895</ele>
        <time>2012-03-18T08:07:15Z</time>
      </trkpt>
      <trkpt lat="47.34466" lon="-0.33389">
        <ele>69.8328857</ele>
        <time>2012-03-18T08:07:20Z</time>
      </trkpt>
      <trkpt lat="47.34472" lon="-0.33341">
        <ele>71.2749023</ele>
        <time>2012-03-18T08:07:29Z</time>
      </trkpt>
      <trkpt lat="47.34475" lon="-0.33319">
        <ele>72.2362061</ele>
        <time>2012-03-18T08:07:34Z</time>
      </trkpt>
      <trkpt lat="47.34473" lon="-0.33292">
        <ele>75.1202393</ele>
        <time>2012-03-18T08:07:40Z</time>
      </trkpt>
      <trkpt lat="47.34468" lon="-0.33271">
        <ele>80.4074707</ele>
        <time>2012-03-18T08:07:45Z</time>
      </trkpt>
      <trkpt lat="47.34464" lon="-0.33248">
        <ele>84.2526855</ele>
        <time>2012-03-18T08:07:51Z</time>
      </trkpt>
      <trkpt lat="47.34463" lon="-0.33233">
        <ele>85.2139893</ele>
        <time>2012-03-18T08:07:55Z</time>
      </trkpt>
      <trkpt lat="47.34461" lon="-0.33219">
        <ele>85.2139893</ele>
        <time>2012-03-18T08:08:00Z</time>
      </trkpt>
      <trkpt lat="47.34459" lon="-0.33201">
        <ele>87.1365967</ele>
        <time>2012-03-18T08:08:05Z</time>
      </trkpt>
      <trkpt lat="47.34457" lon="-0.33187">
        <ele>89.0593262</ele>
        <time>2012-03-18T08:08:09Z</time>
      </trkpt>
      <trkpt lat="47.34456" lon="-0.3317">
        <ele>90.0206299</ele>
        <time>2012-03-18T08:08:14Z</time>
      </trkpt>
      <trkpt lat="47.34456" lon="-0.33167">
        <ele>89.539917</ele>
        <time>2012-03-18T08:08:15Z</time>
      </trkpt>
      <trkpt lat="47.34468" lon="-0.3315">
        <ele>87.1365967</ele>
        <time>2012-03-18T08:08:22Z</time>
      </trkpt>
      <trkpt lat="47.3448" lon="-0.33138">
        <ele>86.6560059</ele>
        <time>2012-03-18T08:08:28Z</time>
      </trkpt>
      <trkpt lat="47.3449" lon="-0.33131">
        <ele>86.6560059</ele>
        <time>2012-03-18T08:08:33Z</time>
      </trkpt>
      <trkpt lat="47.34503" lon="-0.33126">
        <ele>84.7333984</ele>
        <time>2012-03-18T08:08:39Z</time>
      </trkpt>
      <trkpt lat="47.34519" lon="-0.33123">
        <ele>84.2526855</ele>
        <time>2012-03-18T08:08:46Z</time>
      </trkpt>
      <trkpt lat="47.34533" lon="-0.3313">
        <ele>85.2139893</ele>
        <time>2012-03-18T08:08:52Z</time>
      </trkpt>
      <trkpt lat="47.34549" lon="-0.33133">
        <ele>85.6945801</ele>
        <time>2012-03-18T08:08:58Z</time>
      </trkpt>
      <trkpt lat="47.34565" lon="-0.33131">
        <ele>85.2139893</ele>
        <time>2012-03-18T08:09:04Z</time>
      </trkpt>
      <trkpt lat="47.34584" lon="-0.33128">
        <ele>83.7719727</ele>
        <time>2012-03-18T08:09:12Z</time>
      </trkpt>
      <trkpt lat="47.34596" lon="-0.33123">
        <ele>83.2913818</ele>
        <time>2012-03-18T08:09:17Z</time>
      </trkpt>
      <trkpt lat="47.3461" lon="-0.3312">
        <ele>87.1365967</ele>
        <time>2012-03-18T08:09:22Z</time>
      </trkpt>
      <trkpt lat="47.3463" lon="-0.33103">
        <ele>94.3465576</ele>
        <time>2012-03-18T08:09:30Z</time>
      </trkpt>
      <trkpt lat="47.3464" lon="-0.33092">
        <ele>92.4239502</ele>
        <time>2012-03-18T08:09:34Z</time>
      </trkpt>
      <trkpt lat="47.34654" lon="-0.33082">
        <ele>93.3851318</ele>
        <time>2012-03-18T08:09:39Z</time>
      </trkpt>
      <trkpt lat="47.34665" lon="-0.33074">
        <ele>95.7884521</ele>
        <time>2012-03-18T08:09:43Z</time>
      </trkpt>
      <trkpt lat="47.34678" lon="-0.33068">
        <ele>98.6724854</ele>
        <time>2012-03-18T08:09:47Z</time>
      </trkpt>
      <trkpt lat="47.34699" lon="-0.3306">
        <ele>101.0756836</ele>
        <time>2012-03-18T08:09:53Z</time>
      </trkpt>
      <trkpt lat="47.34712" lon="-0.33052">
        <ele>102.0371094</ele>
        <time>2012-03-18T08:09:57Z</time>
      </trkpt>
      <trkpt lat="47.34726" lon="-0.33043">
        <ele>100.5950928</ele>
        <time>2012-03-18T08:10:02Z</time>
      </trkpt>
      <trkpt lat="47.34742" lon="-0.33027">
        <ele>98.6724854</ele>
        <time>2012-03-18T08:10:08Z</time>
      </trkpt>
      <trkpt lat="47.3476" lon="-0.33007">
        <ele>98.1918945</ele>
        <time>2012-03-18T08:10:15Z</time>
      </trkpt>
      <trkpt lat="47.34762" lon="-0.33004">
        <ele>97.7111816</ele>
        <time>2012-03-18T08:10:16Z</time>
      </trkpt>
      <trkpt lat="47.34764" lon="-0.32985">
        <ele>96.2692871</ele>
        <time>2012-03-18T08:10:21Z</time>
      </trkpt>
      <trkpt lat="47.34764" lon="-0.3298">
        <ele>95.7884521</ele>
        <time>2012-03-18T08:10:22Z</time>
      </trkpt>
      <trkpt lat="47.34762" lon="-0.32944">
        <ele>94.8271484</ele>
        <time>2012-03-18T08:10:29Z</time>
      </trkpt>
      <trkpt lat="47.34764" lon="-0.32912">
        <ele>93.3851318</ele>
        <time>2012-03-18T08:10:35Z</time>
      </trkpt>
      <trkpt lat="47.3477" lon="-0.3288">
        <ele>91.9432373</ele>
        <time>2012-03-18T08:10:41Z</time>
      </trkpt>
      <trkpt lat="47.34772" lon="-0.32856">
        <ele>90.9819336</ele>
        <time>2012-03-18T08:10:45Z</time>
      </trkpt>
      <trkpt lat="47.34774" lon="-0.32842">
        <ele>90.0206299</ele>
        <time>2012-03-18T08:10:47Z</time>
      </trkpt>
      <trkpt lat="47.34777" lon="-0.32802">
        <ele>88.5787354</ele>
        <time>2012-03-18T08:10:52Z</time>
      </trkpt>
      <trkpt lat="47.34784" lon="-0.32754">
        <ele>84.7333984</ele>
        <time>2012-03-18T08:10:57Z</time>
      </trkpt>
      <trkpt lat="47.34791" lon="-0.32704">
        <ele>80.8881836</ele>
        <time>2012-03-18T08:11:01Z</time>
      </trkpt>
      <trkpt lat="47.34803" lon="-0.3268">
        <ele>76.5621338</ele>
        <time>2012-03-18T08:11:05Z</time>
      </trkpt>
      <trkpt lat="47.3482" lon="-0.32676">
        <ele>74.6395264</ele>
        <time>2012-03-18T08:11:09Z</time>
      </trkpt>
      <trkpt lat="47.34843" lon="-0.32668">
        <ele>77.5234375</ele>
        <time>2012-03-18T08:11:15Z</time>
      </trkpt>
      <trkpt lat="47.34866" lon="-0.32663">
        <ele>78.4847412</ele>
        <time>2012-03-18T08:11:22Z</time>
      </trkpt>
      <trkpt lat="47.34884" lon="-0.32657">
        <ele>82.3300781</ele>
        <time>2012-03-18T08:11:28Z</time>
      </trkpt>
      <trkpt lat="47.34899" lon="-0.32651">
        <ele>83.7719727</ele>
        <time>2012-03-18T08:11:33Z</time>
      </trkpt>
      <trkpt lat="47.34902" lon="-0.32638">
        <ele>83.2913818</ele>
        <time>2012-03-18T08:11:37Z</time>
      </trkpt>
      <trkpt lat="47.349" lon="-0.32634">
        <ele>82.3300781</ele>
        <time>2012-03-18T08:11:38Z</time>
      </trkpt>
      <trkpt lat="47.34886" lon="-0.32598">
        <ele>80.4074707</ele>
        <time>2012-03-18T08:11:45Z</time>
      </trkpt>
      <trkpt lat="47.34874" lon="-0.32552">
        <ele>80.4074707</ele>
        <time>2012-03-18T08:11:52Z</time>
      </trkpt>
      <trkpt lat="47.34873" lon="-0.3253">
        <ele>79.9266357</ele>
        <time>2012-03-18T08:11:55Z</time>
      </trkpt>
      <trkpt lat="47.34871" lon="-0.32473">
        <ele>75.6008301</ele>
        <time>2012-03-18T08:12:02Z</time>
      </trkpt>
      <trkpt lat="47.3487" lon="-0.32463">
        <ele>75.1202393</ele>
        <time>2012-03-18T08:12:03Z</time>
      </trkpt>
      <trkpt lat="47.34867" lon="-0.32402">
        <ele>71.7554932</ele>
        <time>2012-03-18T08:12:10Z</time>
      </trkpt>
      <trkpt lat="47.34864" lon="-0.32371">
        <ele>71.2749023</ele>
        <time>2012-03-18T08:12:15Z</time>
      </trkpt>
      <trkpt lat="47.34862" lon="-0.3234">
        <ele>71.2749023</ele>
        <time>2012-03-18T08:12:22Z</time>
      </trkpt>
      <trkpt lat="47.34859" lon="-0.32328">
        <ele>71.7554932</ele>
        <time>2012-03-18T08:12:27Z</time>
      </trkpt>
      <trkpt lat="47.34859" lon="-0.32328">
        <ele>71.7554932</ele>
        <time>2012-03-18T08:12:31Z</time>
      </trkpt>
      <trkpt lat="47.34859" lon="-0.32329">
        <ele>72.2362061</ele>
        <time>2012-03-18T08:12:40Z</time>
      </trkpt>
      <trkpt lat="47.3486" lon="-0.32328">
        <ele>70.7941895</ele>
        <time>2012-03-18T08:12:46Z</time>
      </trkpt>
      <trkpt lat="47.3486" lon="-0.32326">
        <ele>70.7941895</ele>
        <time>2012-03-18T08:12:53Z</time>
      </trkpt>
      <trkpt lat="47.34861" lon="-0.32324">
        <ele>70.7941895</ele>
        <time>2012-03-18T08:13:01Z</time>
      </trkpt>
      <trkpt lat="47.34863" lon="-0.32317">
        <ele>73.1976318</ele>
        <time>2012-03-18T08:13:13Z</time>
      </trkpt>
      <trkpt lat="47.34863" lon="-0.32319">
        <ele>72.2362061</ele>
        <time>2012-03-18T08:13:19Z</time>
      </trkpt>
      <trkpt lat="47.34869" lon="-0.3232">
        <ele>71.7554932</ele>
        <time>2012-03-18T08:13:28Z</time>
      </trkpt>
      <trkpt lat="47.34869" lon="-0.32323">
        <ele>71.2749023</ele>
        <time>2012-03-18T08:13:41Z</time>
      </trkpt>
      <trkpt lat="47.34869" lon="-0.32324">
        <ele>72.2362061</ele>
        <time>2012-03-18T08:13:49Z</time>
      </trkpt>
      <trkpt lat="47.34869" lon="-0.32325">
        <ele>73.1976318</ele>
        <time>2012-03-18T08:13:55Z</time>
      </trkpt>
      <trkpt lat="47.34869" lon="-0.32325">
        <ele>76.5621338</ele>
        <time>2012-03-18T08:14:20Z</time>
      </trkpt>
      <trkpt lat="47.34869" lon="-0.32325">
        <ele>76.5621338</ele>
        <time>2012-03-18T08:14:28Z</time>
      </trkpt>
      <trkpt lat="47.34867" lon="-0.32324">
        <ele>74.6395264</ele>
        <time>2012-03-18T08:14:38Z</time>
      </trkpt>
      <trkpt lat="47.3487" lon="-0.32321">
        <ele>70.7941895</ele>
        <time>2012-03-18T08:14:57Z</time>
      </trkpt>
      <trkpt lat="47.34889" lon="-0.32317">
        <ele>66.9489746</ele>
        <time>2012-03-18T08:15:03Z</time>
      </trkpt>
      <trkpt lat="47.34915" lon="-0.32307">
        <ele>64.5456543</ele>
        <time>2012-03-18T08:15:09Z</time>
      </trkpt>
      <trkpt lat="47.34925" lon="-0.32305">
        <ele>63.5843506</ele>
        <time>2012-03-18T08:15:11Z</time>
      </trkpt>
      <trkpt lat="47.34938" lon="-0.32305">
        <ele>62.6229248</ele>
        <time>2012-03-18T08:15:14Z</time>
      </trkpt>
      <trkpt lat="47.34959" lon="-0.32306">
        <ele>63.1036377</ele>
        <time>2012-03-18T08:15:19Z</time>
      </trkpt>
      <trkpt lat="47.34987" lon="-0.32304">
        <ele>60.7003174</ele>
        <time>2012-03-18T08:15:24Z</time>
      </trkpt>
      <trkpt lat="47.35015" lon="-0.32295">
        <ele>58.77771</ele>
        <time>2012-03-18T08:15:29Z</time>
      </trkpt>
      <trkpt lat="47.35033" lon="-0.32285">
        <ele>57.3358154</ele>
        <time>2012-03-18T08:15:32Z</time>
      </trkpt>
      <trkpt lat="47.35063" lon="-0.32259">
        <ele>55.8937988</ele>
        <time>2012-03-18T08:15:37Z</time>
      </trkpt>
      <trkpt lat="47.35106" lon="-0.32221">
        <ele>52.048584</ele>
        <time>2012-03-18T08:15:44Z</time>
      </trkpt>
      <trkpt lat="47.35143" lon="-0.32188">
        <ele>48.2033691</ele>
        <time>2012-03-18T08:15:49Z</time>
      </trkpt>
      <trkpt lat="47.35155" lon="-0.32178">
        <ele>47.7225342</ele>
        <time>2012-03-18T08:15:51Z</time>
      </trkpt>
      <trkpt lat="47.3516" lon="-0.32152">
        <ele>45.7999268</ele>
        <time>2012-03-18T08:15:55Z</time>
      </trkpt>
      <trkpt lat="47.35154" lon="-0.32091">
        <ele>43.8773193</ele>
        <time>2012-03-18T08:16:03Z</time>
      </trkpt>
      <trkpt lat="47.35149" lon="-0.3206">
        <ele>43.3966064</ele>
        <time>2012-03-18T08:16:07Z</time>
      </trkpt>
      <trkpt lat="47.35147" lon="-0.32">
        <ele>42.9160156</ele>
        <time>2012-03-18T08:16:15Z</time>
      </trkpt>
      <trkpt lat="47.35152" lon="-0.31946">
        <ele>44.3580322</ele>
        <time>2012-03-18T08:16:23Z</time>
      </trkpt>
      <trkpt lat="47.35156" lon="-0.31907">
        <ele>46.7612305</ele>
        <time>2012-03-18T08:16:30Z</time>
      </trkpt>
      <trkpt lat="47.35161" lon="-0.31859">
        <ele>49.6452637</ele>
        <time>2012-03-18T08:16:40Z</time>
      </trkpt>
      <trkpt lat="47.35164" lon="-0.31825">
        <ele>51.0871582</ele>
        <time>2012-03-18T08:16:47Z</time>
      </trkpt>
      <trkpt lat="47.35169" lon="-0.31781">
        <ele>53.9711914</ele>
        <time>2012-03-18T08:16:56Z</time>
      </trkpt>
      <trkpt lat="47.35169" lon="-0.31736">
        <ele>55.8937988</ele>
        <time>2012-03-18T08:17:05Z</time>
      </trkpt>
      <trkpt lat="47.35166" lon="-0.31698">
        <ele>57.3358154</ele>
        <time>2012-03-18T08:17:13Z</time>
      </trkpt>
      <trkpt lat="47.35161" lon="-0.3166">
        <ele>59.7391357</ele>
        <time>2012-03-18T08:17:21Z</time>
      </trkpt>
      <trkpt lat="47.35163" lon="-0.31622">
        <ele>60.7003174</ele>
        <time>2012-03-18T08:17:29Z</time>
      </trkpt>
      <trkpt lat="47.35163" lon="-0.31613">
        <ele>61.1810303</ele>
        <time>2012-03-18T08:17:31Z</time>
      </trkpt>
      <trkpt lat="47.35154" lon="-0.31593">
        <ele>61.1810303</ele>
        <time>2012-03-18T08:17:37Z</time>
      </trkpt>
      <trkpt lat="47.35142" lon="-0.31557">
        <ele>62.142334</ele>
        <time>2012-03-18T08:17:47Z</time>
      </trkpt>
      <trkpt lat="47.35124" lon="-0.31515">
        <ele>63.5843506</ele>
        <time>2012-03-18T08:17:59Z</time>
      </trkpt>
      <trkpt lat="47.35112" lon="-0.31487">
        <ele>64.0650635</ele>
        <time>2012-03-18T08:18:07Z</time>
      </trkpt>
      <trkpt lat="47.35096" lon="-0.31446">
        <ele>64.5456543</ele>
        <time>2012-03-18T08:18:18Z</time>
      </trkpt>
      <trkpt lat="47.35083" lon="-0.31407">
        <ele>65.0263672</ele>
        <time>2012-03-18T08:18:28Z</time>
      </trkpt>
      <trkpt lat="47.35073" lon="-0.31376">
        <ele>65.5070801</ele>
        <time>2012-03-18T08:18:36Z</time>
      </trkpt>
      <trkpt lat="47.35061" lon="-0.31341">
        <ele>65.9876709</ele>
        <time>2012-03-18T08:18:45Z</time>
      </trkpt>
      <trkpt lat="47.35049" lon="-0.31302">
        <ele>66.4682617</ele>
        <time>2012-03-18T08:18:55Z</time>
      </trkpt>
      <trkpt lat="47.35038" lon="-0.31262">
        <ele>67.9102783</ele>
        <time>2012-03-18T08:19:06Z</time>
      </trkpt>
      <trkpt lat="47.35032" lon="-0.31234">
        <ele>68.871582</ele>
        <time>2012-03-18T08:19:14Z</time>
      </trkpt>
      <trkpt lat="47.35026" lon="-0.31217">
        <ele>69.3522949</ele>
        <time>2012-03-18T08:19:19Z</time>
      </trkpt>
      <trkpt lat="47.35016" lon="-0.31191">
        <ele>70.3134766</ele>
        <time>2012-03-18T08:19:28Z</time>
      </trkpt>
      <trkpt lat="47.35007" lon="-0.31172">
        <ele>72.2362061</ele>
        <time>2012-03-18T08:19:36Z</time>
      </trkpt>
      <trkpt lat="47.34999" lon="-0.31154">
        <ele>76.0814209</ele>
        <time>2012-03-18T08:19:42Z</time>
      </trkpt>
      <trkpt lat="47.34993" lon="-0.31142">
        <ele>78.4847412</ele>
        <time>2012-03-18T08:19:47Z</time>
      </trkpt>
      <trkpt lat="47.34989" lon="-0.31132">
        <ele>79.9266357</ele>
        <time>2012-03-18T08:19:53Z</time>
      </trkpt>
      <trkpt lat="47.34984" lon="-0.3112">
        <ele>81.8493652</ele>
        <time>2012-03-18T08:20:00Z</time>
      </trkpt>
      <trkpt lat="47.34981" lon="-0.31113">
        <ele>82.810791</ele>
        <time>2012-03-18T08:20:05Z</time>
      </trkpt>
      <trkpt lat="47.34981" lon="-0.31105">
        <ele>84.7333984</ele>
        <time>2012-03-18T08:20:12Z</time>
      </trkpt>
      <trkpt lat="47.34979" lon="-0.31101">
        <ele>86.175293</ele>
        <time>2012-03-18T08:20:17Z</time>
      </trkpt>
      <trkpt lat="47.34976" lon="-0.31092">
        <ele>84.7333984</ele>
        <time>2012-03-18T08:20:23Z</time>
      </trkpt>
      <trkpt lat="47.34975" lon="-0.3109">
        <ele>84.7333984</ele>
        <time>2012-03-18T08:20:24Z</time>
      </trkpt>
      <trkpt lat="47.34974" lon="-0.31087">
        <ele>84.7333984</ele>
        <time>2012-03-18T08:20:26Z</time>
      </trkpt>
      <trkpt lat="47.34969" lon="-0.31079">
        <ele>85.2139893</ele>
        <time>2012-03-18T08:20:33Z</time>
      </trkpt>
      <trkpt lat="47.34965" lon="-0.31073">
        <ele>85.6945801</ele>
        <time>2012-03-18T08:20:38Z</time>
      </trkpt>
      <trkpt lat="47.3496" lon="-0.31062">
        <ele>86.175293</ele>
        <time>2012-03-18T08:20:46Z</time>
      </trkpt>
      <trkpt lat="47.34957" lon="-0.31053">
        <ele>86.6560059</ele>
        <time>2012-03-18T08:20:51Z</time>
      </trkpt>
      <trkpt lat="47.34953" lon="-0.3104">
        <ele>85.6945801</ele>
        <time>2012-03-18T08:20:59Z</time>
      </trkpt>
      <trkpt lat="47.34948" lon="-0.31027">
        <ele>86.175293</ele>
        <time>2012-03-18T08:21:08Z</time>
      </trkpt>
      <trkpt lat="47.34946" lon="-0.31013">
        <ele>83.7719727</ele>
        <time>2012-03-18T08:21:16Z</time>
      </trkpt>
      <trkpt lat="47.34942" lon="-0.31001">
        <ele>82.810791</ele>
        <time>2012-03-18T08:21:23Z</time>
      </trkpt>
      <trkpt lat="47.34939" lon="-0.30999">
        <ele>82.3300781</ele>
        <time>2012-03-18T08:21:26Z</time>
      </trkpt>
      <trkpt lat="47.34939" lon="-0.30997">
        <ele>83.2913818</ele>
        <time>2012-03-18T08:21:32Z</time>
      </trkpt>
      <trkpt lat="47.34939" lon="-0.30997">
        <ele>83.2913818</ele>
        <time>2012-03-18T08:21:40Z</time>
      </trkpt>
      <trkpt lat="47.34938" lon="-0.30996">
        <ele>83.7719727</ele>
        <time>2012-03-18T08:21:46Z</time>
      </trkpt>
      <trkpt lat="47.34937" lon="-0.30995">
        <ele>83.2913818</ele>
        <time>2012-03-18T08:21:54Z</time>
      </trkpt>
      <trkpt lat="47.34938" lon="-0.30996">
        <ele>84.7333984</ele>
        <time>2012-03-18T08:22:04Z</time>
      </trkpt>
      <trkpt lat="47.3494" lon="-0.30996">
        <ele>86.175293</ele>
        <time>2012-03-18T08:22:13Z</time>
      </trkpt>
      <trkpt lat="47.3494" lon="-0.30995">
        <ele>87.1365967</ele>
        <time>2012-03-18T08:22:22Z</time>
      </trkpt>
      <trkpt lat="47.3494" lon="-0.30995">
        <ele>85.6945801</ele>
        <time>2012-03-18T08:22:34Z</time>
      </trkpt>
      <trkpt lat="47.34939" lon="-0.30997">
        <ele>84.7333984</ele>
        <time>2012-03-18T08:22:46Z</time>
      </trkpt>
      <trkpt lat="47.34937" lon="-0.30992">
        <ele>83.7719727</ele>
        <time>2012-03-18T08:22:55Z</time>
      </trkpt>
      <trkpt lat="47.34937" lon="-0.30992">
        <ele>83.7719727</ele>
        <time>2012-03-18T08:23:01Z</time>
      </trkpt>
      <trkpt lat="47.34936" lon="-0.30992">
        <ele>84.7333984</ele>
        <time>2012-03-18T08:23:17Z</time>
      </trkpt>
      <trkpt lat="47.34936" lon="-0.30992">
        <ele>84.7333984</ele>
        <time>2012-03-18T08:23:18Z</time>
      </trkpt>
      <trkpt lat="47.34936" lon="-0.30989">
        <ele>84.7333984</ele>
        <time>2012-03-18T08:23:22Z</time>
      </trkpt>
      <trkpt lat="47.34933" lon="-0.30987">
        <ele>84.2526855</ele>
        <time>2012-03-18T08:23:24Z</time>
      </trkpt>
      <trkpt lat="47.34925" lon="-0.30971">
        <ele>83.7719727</ele>
        <time>2012-03-18T08:23:29Z</time>
      </trkpt>
      <trkpt lat="47.34921" lon="-0.30948">
        <ele>82.810791</ele>
        <time>2012-03-18T08:23:36Z</time>
      </trkpt>
      <trkpt lat="47.34915" lon="-0.30916">
        <ele>81.3687744</ele>
        <time>2012-03-18T08:23:44Z</time>
      </trkpt>
      <trkpt lat="47.3491" lon="-0.30889">
        <ele>80.4074707</ele>
        <time>2012-03-18T08:23:50Z</time>
      </trkpt>
      <trkpt lat="47.34904" lon="-0.30872">
        <ele>80.4074707</ele>
        <time>2012-03-18T08:23:54Z</time>
      </trkpt>
      <trkpt lat="47.34894" lon="-0.30842">
        <ele>80.8881836</ele>
        <time>2012-03-18T08:24:00Z</time>
      </trkpt>
      <trkpt lat="47.34894" lon="-0.30808">
        <ele>82.3300781</ele>
        <time>2012-03-18T08:24:06Z</time>
      </trkpt>
      <trkpt lat="47.34895" lon="-0.3077">
        <ele>83.2913818</ele>
        <time>2012-03-18T08:24:13Z</time>
      </trkpt>
      <trkpt lat="47.34896" lon="-0.30743">
        <ele>84.2526855</ele>
        <time>2012-03-18T08:24:18Z</time>
      </trkpt>
      <trkpt lat="47.34894" lon="-0.3069">
        <ele>83.7719727</ele>
        <time>2012-03-18T08:24:27Z</time>
      </trkpt>
      <trkpt lat="47.34888" lon="-0.30646">
        <ele>83.7719727</ele>
        <time>2012-03-18T08:24:34Z</time>
      </trkpt>
      <trkpt lat="47.34875" lon="-0.30594">
        <ele>83.2913818</ele>
        <time>2012-03-18T08:24:43Z</time>
      </trkpt>
      <trkpt lat="47.34855" lon="-0.30523">
        <ele>82.810791</ele>
        <time>2012-03-18T08:24:55Z</time>
      </trkpt>
      <trkpt lat="47.34841" lon="-0.30466">
        <ele>82.810791</ele>
        <time>2012-03-18T08:25:04Z</time>
      </trkpt>
      <trkpt lat="47.3483" lon="-0.30395">
        <ele>81.8493652</ele>
        <time>2012-03-18T08:25:14Z</time>
      </trkpt>
      <trkpt lat="47.34822" lon="-0.3033">
        <ele>81.3687744</ele>
        <time>2012-03-18T08:25:23Z</time>
      </trkpt>
      <trkpt lat="47.34828" lon="-0.30306">
        <ele>80.8881836</ele>
        <time>2012-03-18T08:25:27Z</time>
      </trkpt>
      <trkpt lat="47.34839" lon="-0.30294">
        <ele>80.8881836</ele>
        <time>2012-03-18T08:25:30Z</time>
      </trkpt>
      <trkpt lat="47.34853" lon="-0.30266">
        <ele>80.4074707</ele>
        <time>2012-03-18T08:25:35Z</time>
      </trkpt>
      <trkpt lat="47.34854" lon="-0.30259">
        <ele>80.4074707</ele>
        <time>2012-03-18T08:25:36Z</time>
      </trkpt>
      <trkpt lat="47.34866" lon="-0.30213">
        <ele>79.4460449</ele>
        <time>2012-03-18T08:25:43Z</time>
      </trkpt>
      <trkpt lat="47.34877" lon="-0.30189">
        <ele>78.4847412</ele>
        <time>2012-03-18T08:25:47Z</time>
      </trkpt>
      <trkpt lat="47.34906" lon="-0.30154">
        <ele>76.5621338</ele>
        <time>2012-03-18T08:25:54Z</time>
      </trkpt>
      <trkpt lat="47.34942" lon="-0.30131">
        <ele>73.6782227</ele>
        <time>2012-03-18T08:26:00Z</time>
      </trkpt>
      <trkpt lat="47.34975" lon="-0.30112">
        <ele>71.7554932</ele>
        <time>2012-03-18T08:26:05Z</time>
      </trkpt>
      <trkpt lat="47.35009" lon="-0.3008">
        <ele>69.8328857</ele>
        <time>2012-03-18T08:26:11Z</time>
      </trkpt>
      <trkpt lat="47.35039" lon="-0.3005">
        <ele>68.3908691</ele>
        <time>2012-03-18T08:26:17Z</time>
      </trkpt>
      <trkpt lat="47.35068" lon="-0.30029">
        <ele>67.9102783</ele>
        <time>2012-03-18T08:26:23Z</time>
      </trkpt>
      <trkpt lat="47.35076" lon="-0.30013">
        <ele>67.9102783</ele>
        <time>2012-03-18T08:26:27Z</time>
      </trkpt>
      <trkpt lat="47.35068" lon="-0.30001">
        <ele>67.9102783</ele>
        <time>2012-03-18T08:26:31Z</time>
      </trkpt>
      <trkpt lat="47.35055" lon="-0.29981">
        <ele>68.871582</ele>
        <time>2012-03-18T08:26:38Z</time>
      </trkpt>
      <trkpt lat="47.35045" lon="-0.29969">
        <ele>68.3908691</ele>
        <time>2012-03-18T08:26:44Z</time>
      </trkpt>
      <trkpt lat="47.35033" lon="-0.29956">
        <ele>68.3908691</ele>
        <time>2012-03-18T08:26:52Z</time>
      </trkpt>
      <trkpt lat="47.35024" lon="-0.29947">
        <ele>68.871582</ele>
        <time>2012-03-18T08:26:58Z</time>
      </trkpt>
      <trkpt lat="47.35015" lon="-0.29936">
        <ele>70.7941895</ele>
        <time>2012-03-18T08:27:04Z</time>
      </trkpt>
      <trkpt lat="47.35011" lon="-0.29927">
        <ele>71.2749023</ele>
        <time>2012-03-18T08:27:08Z</time>
      </trkpt>
      <trkpt lat="47.35002" lon="-0.29912">
        <ele>72.7169189</ele>
        <time>2012-03-18T08:27:14Z</time>
      </trkpt>
      <trkpt lat="47.34993" lon="-0.29897">
        <ele>75.1202393</ele>
        <time>2012-03-18T08:27:20Z</time>
      </trkpt>
      <trkpt lat="47.34986" lon="-0.29878">
        <ele>77.0428467</ele>
        <time>2012-03-18T08:27:27Z</time>
      </trkpt>
      <trkpt lat="47.34984" lon="-0.29862">
        <ele>77.5234375</ele>
        <time>2012-03-18T08:27:32Z</time>
      </trkpt>
      <trkpt lat="47.34978" lon="-0.29838">
        <ele>78.4847412</ele>
        <time>2012-03-18T08:27:40Z</time>
      </trkpt>
      <trkpt lat="47.34974" lon="-0.29819">
        <ele>79.4460449</ele>
        <time>2012-03-18T08:27:46Z</time>
      </trkpt>
      <trkpt lat="47.34968" lon="-0.29794">
        <ele>79.9266357</ele>
        <time>2012-03-18T08:27:54Z</time>
      </trkpt>
      <trkpt lat="47.34964" lon="-0.2976">
        <ele>79.9266357</ele>
        <time>2012-03-18T08:28:04Z</time>
      </trkpt>
      <trkpt lat="47.34962" lon="-0.29734">
        <ele>80.4074707</ele>
        <time>2012-03-18T08:28:12Z</time>
      </trkpt>
      <trkpt lat="47.34961" lon="-0.29706">
        <ele>80.4074707</ele>
        <time>2012-03-18T08:28:20Z</time>
      </trkpt>
      <trkpt lat="47.34963" lon="-0.2967">
        <ele>80.8881836</ele>
        <time>2012-03-18T08:28:30Z</time>
      </trkpt>
      <trkpt lat="47.34968" lon="-0.29643">
        <ele>80.8881836</ele>
        <time>2012-03-18T08:28:38Z</time>
      </trkpt>
      <trkpt lat="47.3498" lon="-0.29602">
        <ele>80.8881836</ele>
        <time>2012-03-18T08:28:49Z</time>
      </trkpt>
      <trkpt lat="47.34984" lon="-0.29572">
        <ele>80.8881836</ele>
        <time>2012-03-18T08:28:56Z</time>
      </trkpt>
      <trkpt lat="47.34984" lon="-0.29538">
        <ele>81.3687744</ele>
        <time>2012-03-18T08:29:04Z</time>
      </trkpt>
      <trkpt lat="47.34983" lon="-0.29497">
        <ele>81.8493652</ele>
        <time>2012-03-18T08:29:13Z</time>
      </trkpt>
      <trkpt lat="47.34979" lon="-0.29459">
        <ele>81.8493652</ele>
        <time>2012-03-18T08:29:21Z</time>
      </trkpt>
      <trkpt lat="47.34973" lon="-0.2941">
        <ele>82.3300781</ele>
        <time>2012-03-18T08:29:31Z</time>
      </trkpt>
      <trkpt lat="47.3497" lon="-0.29378">
        <ele>81.8493652</ele>
        <time>2012-03-18T08:29:37Z</time>
      </trkpt>
      <trkpt lat="47.34969" lon="-0.29323">
        <ele>80.8881836</ele>
        <time>2012-03-18T08:29:47Z</time>
      </trkpt>
      <trkpt lat="47.3497" lon="-0.29318">
        <ele>80.8881836</ele>
        <time>2012-03-18T08:29:48Z</time>
      </trkpt>
      <trkpt lat="47.34982" lon="-0.29309">
        <ele>80.8881836</ele>
        <time>2012-03-18T08:29:52Z</time>
      </trkpt>
      <trkpt lat="47.35014" lon="-0.29304">
        <ele>81.3687744</ele>
        <time>2012-03-18T08:30:00Z</time>
      </trkpt>
      <trkpt lat="47.35038" lon="-0.29298">
        <ele>81.3687744</ele>
        <time>2012-03-18T08:30:05Z</time>
      </trkpt>
      <trkpt lat="47.35069" lon="-0.2929">
        <ele>80.4074707</ele>
        <time>2012-03-18T08:30:12Z</time>
      </trkpt>
      <trkpt lat="47.35105" lon="-0.29289">
        <ele>79.9266357</ele>
        <time>2012-03-18T08:30:20Z</time>
      </trkpt>
      <trkpt lat="47.35136" lon="-0.29298">
        <ele>79.4460449</ele>
        <time>2012-03-18T08:30:27Z</time>
      </trkpt>
      <trkpt lat="47.35144" lon="-0.29301">
        <ele>79.4460449</ele>
        <time>2012-03-18T08:30:29Z</time>
      </trkpt>
      <trkpt lat="47.35151" lon="-0.29306">
        <ele>79.4460449</ele>
        <time>2012-03-18T08:30:31Z</time>
      </trkpt>
      <trkpt lat="47.35159" lon="-0.29299">
        <ele>79.4460449</ele>
        <time>2012-03-18T08:30:34Z</time>
      </trkpt>
      <trkpt lat="47.35159" lon="-0.29294">
        <ele>79.4460449</ele>
        <time>2012-03-18T08:30:35Z</time>
      </trkpt>
      <trkpt lat="47.35162" lon="-0.29266">
        <ele>78.9654541</ele>
        <time>2012-03-18T08:30:41Z</time>
      </trkpt>
      <trkpt lat="47.35163" lon="-0.29232">
        <ele>79.4460449</ele>
        <time>2012-03-18T08:30:48Z</time>
      </trkpt>
      <trkpt lat="47.35167" lon="-0.29197">
        <ele>80.8881836</ele>
        <time>2012-03-18T08:30:55Z</time>
      </trkpt>
      <trkpt lat="47.35177" lon="-0.29161">
        <ele>78.9654541</ele>
        <time>2012-03-18T08:31:02Z</time>
      </trkpt>
      <trkpt lat="47.35195" lon="-0.2912">
        <ele>78.0040283</ele>
        <time>2012-03-18T08:31:11Z</time>
      </trkpt>
      <trkpt lat="47.352" lon="-0.29094">
        <ele>78.9654541</ele>
        <time>2012-03-18T08:31:16Z</time>
      </trkpt>
      <trkpt lat="47.35201" lon="-0.29069">
        <ele>78.0040283</ele>
        <time>2012-03-18T08:31:20Z</time>
      </trkpt>
      <trkpt lat="47.35204" lon="-0.29023">
        <ele>76.0814209</ele>
        <time>2012-03-18T08:31:27Z</time>
      </trkpt>
      <trkpt lat="47.3521" lon="-0.28968">
        <ele>75.1202393</ele>
        <time>2012-03-18T08:31:36Z</time>
      </trkpt>
      <trkpt lat="47.35213" lon="-0.28931">
        <ele>74.1588135</ele>
        <time>2012-03-18T08:31:43Z</time>
      </trkpt>
      <trkpt lat="47.35214" lon="-0.28899">
        <ele>73.6782227</ele>
        <time>2012-03-18T08:31:49Z</time>
      </trkpt>
      <trkpt lat="47.35217" lon="-0.28886">
        <ele>73.6782227</ele>
        <time>2012-03-18T08:31:51Z</time>
      </trkpt>
      <trkpt lat="47.35231" lon="-0.28877">
        <ele>74.6395264</ele>
        <time>2012-03-18T08:31:55Z</time>
      </trkpt>
      <trkpt lat="47.35253" lon="-0.28869">
        <ele>77.0428467</ele>
        <time>2012-03-18T08:32:02Z</time>
      </trkpt>
      <trkpt lat="47.35272" lon="-0.28865">
        <ele>78.0040283</ele>
        <time>2012-03-18T08:32:08Z</time>
      </trkpt>
      <trkpt lat="47.35289" lon="-0.28863">
        <ele>80.8881836</ele>
        <time>2012-03-18T08:32:13Z</time>
      </trkpt>
      <trkpt lat="47.35315" lon="-0.28867">
        <ele>83.2913818</ele>
        <time>2012-03-18T08:32:18Z</time>
      </trkpt>
      <trkpt lat="47.35323" lon="-0.28864">
        <ele>83.2913818</ele>
        <time>2012-03-18T08:32:19Z</time>
      </trkpt>
      <trkpt lat="47.35353" lon="-0.28868">
        <ele>80.4074707</ele>
        <time>2012-03-18T08:32:23Z</time>
      </trkpt>
      <trkpt lat="47.35377" lon="-0.28881">
        <ele>77.5234375</ele>
        <time>2012-03-18T08:32:27Z</time>
      </trkpt>
      <trkpt lat="47.35401" lon="-0.28893">
        <ele>76.0814209</ele>
        <time>2012-03-18T08:32:31Z</time>
      </trkpt>
      <trkpt lat="47.35407" lon="-0.28887">
        <ele>78.0040283</ele>
        <time>2012-03-18T08:32:34Z</time>
      </trkpt>
      <trkpt lat="47.35411" lon="-0.28889">
        <ele>77.5234375</ele>
        <time>2012-03-18T08:32:36Z</time>
      </trkpt>
      <trkpt lat="47.35428" lon="-0.28901">
        <ele>75.1202393</ele>
        <time>2012-03-18T08:32:42Z</time>
      </trkpt>
      <trkpt lat="47.35454" lon="-0.28911">
        <ele>74.1588135</ele>
        <time>2012-03-18T08:32:48Z</time>
      </trkpt>
      <trkpt lat="47.35482" lon="-0.28919">
        <ele>75.6008301</ele>
        <time>2012-03-18T08:32:53Z</time>
      </trkpt>
      <trkpt lat="47.35507" lon="-0.28921">
        <ele>75.1202393</ele>
        <time>2012-03-18T08:32:57Z</time>
      </trkpt>
      <trkpt lat="47.35534" lon="-0.28921">
        <ele>73.1976318</ele>
        <time>2012-03-18T08:33:01Z</time>
      </trkpt>
      <trkpt lat="47.35577" lon="-0.28925">
        <ele>68.871582</ele>
        <time>2012-03-18T08:33:07Z</time>
      </trkpt>
      <trkpt lat="47.35637" lon="-0.28928">
        <ele>63.5843506</ele>
        <time>2012-03-18T08:33:16Z</time>
      </trkpt>
      <trkpt lat="47.35684" lon="-0.28923">
        <ele>61.1810303</ele>
        <time>2012-03-18T08:33:24Z</time>
      </trkpt>
      <trkpt lat="47.35715" lon="-0.28922">
        <ele>59.2584229</ele>
        <time>2012-03-18T08:33:30Z</time>
      </trkpt>
      <trkpt lat="47.35759" lon="-0.28924">
        <ele>58.2971191</ele>
        <time>2012-03-18T08:33:38Z</time>
      </trkpt>
      <trkpt lat="47.35799" lon="-0.2893">
        <ele>57.8165283</ele>
        <time>2012-03-18T08:33:45Z</time>
      </trkpt>
      <trkpt lat="47.35824" lon="-0.28947">
        <ele>57.8165283</ele>
        <time>2012-03-18T08:33:50Z</time>
      </trkpt>
      <trkpt lat="47.35862" lon="-0.29009">
        <ele>57.8165283</ele>
        <time>2012-03-18T08:34:01Z</time>
      </trkpt>
      <trkpt lat="47.3588" lon="-0.29012">
        <ele>57.8165283</ele>
        <time>2012-03-18T08:34:05Z</time>
      </trkpt>
      <trkpt lat="47.35892" lon="-0.28991">
        <ele>57.8165283</ele>
        <time>2012-03-18T08:34:09Z</time>
      </trkpt>
      <trkpt lat="47.359" lon="-0.28972">
        <ele>58.2971191</ele>
        <time>2012-03-18T08:34:12Z</time>
      </trkpt>
      <trkpt lat="47.35916" lon="-0.28943">
        <ele>58.77771</ele>
        <time>2012-03-18T08:34:17Z</time>
      </trkpt>
      <trkpt lat="47.35933" lon="-0.28927">
        <ele>59.2584229</ele>
        <time>2012-03-18T08:34:21Z</time>
      </trkpt>
      <trkpt lat="47.35937" lon="-0.28926">
        <ele>59.2584229</ele>
        <time>2012-03-18T08:34:22Z</time>
      </trkpt>
      <trkpt lat="47.35979" lon="-0.28916">
        <ele>60.7003174</ele>
        <time>2012-03-18T08:34:31Z</time>
      </trkpt>
      <trkpt lat="47.36" lon="-0.28912">
        <ele>61.1810303</ele>
        <time>2012-03-18T08:34:36Z</time>
      </trkpt>
      <trkpt lat="47.36034" lon="-0.28907">
        <ele>61.1810303</ele>
        <time>2012-03-18T08:34:45Z</time>
      </trkpt>
      <trkpt lat="47.36066" lon="-0.289">
        <ele>61.1810303</ele>
        <time>2012-03-18T08:34:54Z</time>
      </trkpt>
      <trkpt lat="47.36094" lon="-0.28891">
        <ele>62.142334</ele>
        <time>2012-03-18T08:35:02Z</time>
      </trkpt>
      <trkpt lat="47.36116" lon="-0.28878">
        <ele>63.5843506</ele>
        <time>2012-03-18T08:35:09Z</time>
      </trkpt>
      <trkpt lat="47.36134" lon="-0.28861">
        <ele>67.4296875</ele>
        <time>2012-03-18T08:35:15Z</time>
      </trkpt>
      <trkpt lat="47.36153" lon="-0.28845">
        <ele>69.8328857</ele>
        <time>2012-03-18T08:35:21Z</time>
      </trkpt>
      <trkpt lat="47.36176" lon="-0.28834">
        <ele>69.3522949</ele>
        <time>2012-03-18T08:35:28Z</time>
      </trkpt>
      <trkpt lat="47.36199" lon="-0.28829">
        <ele>68.3908691</ele>
        <time>2012-03-18T08:35:36Z</time>
      </trkpt>
      <trkpt lat="47.36212" lon="-0.28828">
        <ele>69.8328857</ele>
        <time>2012-03-18T08:35:41Z</time>
      </trkpt>
      <trkpt lat="47.36223" lon="-0.28829">
        <ele>71.2749023</ele>
        <time>2012-03-18T08:35:45Z</time>
      </trkpt>
      <trkpt lat="47.36244" lon="-0.28832">
        <ele>71.7554932</ele>
        <time>2012-03-18T08:35:51Z</time>
      </trkpt>
      <trkpt lat="47.3626" lon="-0.28836">
        <ele>72.2362061</ele>
        <time>2012-03-18T08:35:56Z</time>
      </trkpt>
      <trkpt lat="47.36281" lon="-0.28838">
        <ele>74.1588135</ele>
        <time>2012-03-18T08:36:03Z</time>
      </trkpt>
      <trkpt lat="47.36296" lon="-0.28835">
        <ele>73.1976318</ele>
        <time>2012-03-18T08:36:08Z</time>
      </trkpt>
      <trkpt lat="47.36307" lon="-0.28831">
        <ele>72.2362061</ele>
        <time>2012-03-18T08:36:12Z</time>
      </trkpt>
      <trkpt lat="47.36323" lon="-0.28827">
        <ele>71.7554932</ele>
        <time>2012-03-18T08:36:17Z</time>
      </trkpt>
      <trkpt lat="47.36348" lon="-0.28821">
        <ele>71.2749023</ele>
        <time>2012-03-18T08:36:24Z</time>
      </trkpt>
      <trkpt lat="47.36364" lon="-0.28814">
        <ele>74.1588135</ele>
        <time>2012-03-18T08:36:29Z</time>
      </trkpt>
      <trkpt lat="47.36384" lon="-0.28806">
        <ele>72.2362061</ele>
        <time>2012-03-18T08:36:35Z</time>
      </trkpt>
      <trkpt lat="47.36405" lon="-0.28803">
        <ele>72.7169189</ele>
        <time>2012-03-18T08:36:41Z</time>
      </trkpt>
      <trkpt lat="47.3643" lon="-0.2881">
        <ele>72.2362061</ele>
        <time>2012-03-18T08:36:49Z</time>
      </trkpt>
      <trkpt lat="47.36445" lon="-0.28814">
        <ele>73.6782227</ele>
        <time>2012-03-18T08:36:54Z</time>
      </trkpt>
      <trkpt lat="47.36464" lon="-0.28818">
        <ele>73.1976318</ele>
        <time>2012-03-18T08:37:00Z</time>
      </trkpt>
      <trkpt lat="47.3648" lon="-0.28823">
        <ele>72.2362061</ele>
        <time>2012-03-18T08:37:05Z</time>
      </trkpt>
      <trkpt lat="47.36498" lon="-0.28828">
        <ele>72.2362061</ele>
        <time>2012-03-18T08:37:11Z</time>
      </trkpt>
      <trkpt lat="47.36516" lon="-0.28831">
        <ele>72.2362061</ele>
        <time>2012-03-18T08:37:17Z</time>
      </trkpt>
      <trkpt lat="47.36541" lon="-0.28831">
        <ele>72.7169189</ele>
        <time>2012-03-18T08:37:25Z</time>
      </trkpt>
      <trkpt lat="47.36559" lon="-0.28822">
        <ele>74.1588135</ele>
        <time>2012-03-18T08:37:31Z</time>
      </trkpt>
      <trkpt lat="47.36578" lon="-0.28811">
        <ele>75.1202393</ele>
        <time>2012-03-18T08:37:38Z</time>
      </trkpt>
      <trkpt lat="47.36593" lon="-0.28802">
        <ele>75.1202393</ele>
        <time>2012-03-18T08:37:43Z</time>
      </trkpt>
      <trkpt lat="47.3661" lon="-0.28789">
        <ele>76.5621338</ele>
        <time>2012-03-18T08:37:50Z</time>
      </trkpt>
      <trkpt lat="47.36628" lon="-0.28781">
        <ele>78.4847412</ele>
        <time>2012-03-18T08:37:56Z</time>
      </trkpt>
      <trkpt lat="47.3665" lon="-0.28771">
        <ele>79.4460449</ele>
        <time>2012-03-18T08:38:03Z</time>
      </trkpt>
      <trkpt lat="47.36673" lon="-0.28765">
        <ele>79.4460449</ele>
        <time>2012-03-18T08:38:10Z</time>
      </trkpt>
      <trkpt lat="47.3669" lon="-0.28761">
        <ele>78.9654541</ele>
        <time>2012-03-18T08:38:15Z</time>
      </trkpt>
      <trkpt lat="47.36712" lon="-0.28757">
        <ele>77.5234375</ele>
        <time>2012-03-18T08:38:21Z</time>
      </trkpt>
      <trkpt lat="47.36721" lon="-0.28755">
        <ele>76.5621338</ele>
        <time>2012-03-18T08:38:24Z</time>
      </trkpt>
      <trkpt lat="47.36734" lon="-0.28754">
        <ele>76.0814209</ele>
        <time>2012-03-18T08:38:28Z</time>
      </trkpt>
      <trkpt lat="47.36751" lon="-0.28753">
        <ele>74.6395264</ele>
        <time>2012-03-18T08:38:35Z</time>
      </trkpt>
      <trkpt lat="47.3676" lon="-0.28749">
        <ele>74.1588135</ele>
        <time>2012-03-18T08:38:42Z</time>
      </trkpt>
      <trkpt lat="47.36766" lon="-0.28744">
        <ele>73.1976318</ele>
        <time>2012-03-18T08:38:48Z</time>
      </trkpt>
      <trkpt lat="47.36766" lon="-0.28743">
        <ele>74.6395264</ele>
        <time>2012-03-18T08:38:56Z</time>
      </trkpt>
      <trkpt lat="47.36767" lon="-0.28742">
        <ele>75.6008301</ele>
        <time>2012-03-18T08:39:04Z</time>
      </trkpt>
      <trkpt lat="47.36767" lon="-0.28741">
        <ele>77.5234375</ele>
        <time>2012-03-18T08:39:18Z</time>
      </trkpt>
      <trkpt lat="47.36764" lon="-0.28746">
        <ele>76.0814209</ele>
        <time>2012-03-18T08:39:25Z</time>
      </trkpt>
      <trkpt lat="47.36764" lon="-0.28751">
        <ele>75.6008301</ele>
        <time>2012-03-18T08:39:31Z</time>
      </trkpt>
      <trkpt lat="47.36764" lon="-0.28753">
        <ele>75.1202393</ele>
        <time>2012-03-18T08:39:33Z</time>
      </trkpt>
      <trkpt lat="47.36763" lon="-0.28753">
        <ele>76.5621338</ele>
        <time>2012-03-18T08:39:39Z</time>
      </trkpt>
      <trkpt lat="47.36761" lon="-0.28754">
        <ele>76.0814209</ele>
        <time>2012-03-18T08:39:47Z</time>
      </trkpt>
      <trkpt lat="47.3676" lon="-0.28754">
        <ele>76.0814209</ele>
        <time>2012-03-18T08:39:57Z</time>
      </trkpt>
      <trkpt lat="47.3676" lon="-0.28754">
        <ele>76.5621338</ele>
        <time>2012-03-18T08:40:05Z</time>
      </trkpt>
      <trkpt lat="47.36759" lon="-0.28752">
        <ele>77.0428467</ele>
        <time>2012-03-18T08:40:12Z</time>
      </trkpt>
      <trkpt lat="47.36756" lon="-0.28754">
        <ele>78.0040283</ele>
        <time>2012-03-18T08:40:19Z</time>
      </trkpt>
      <trkpt lat="47.36756" lon="-0.28755">
        <ele>78.9654541</ele>
        <time>2012-03-18T08:40:26Z</time>
      </trkpt>
      <trkpt lat="47.36759" lon="-0.28755">
        <ele>79.4460449</ele>
        <time>2012-03-18T08:40:32Z</time>
      </trkpt>
      <trkpt lat="47.3676" lon="-0.28757">
        <ele>78.9654541</ele>
        <time>2012-03-18T08:40:38Z</time>
      </trkpt>
      <trkpt lat="47.36759" lon="-0.28756">
        <ele>78.0040283</ele>
        <time>2012-03-18T08:40:44Z</time>
      </trkpt>
      <trkpt lat="47.36758" lon="-0.28756">
        <ele>77.5234375</ele>
        <time>2012-03-18T08:40:52Z</time>
      </trkpt>
      <trkpt lat="47.36757" lon="-0.28756">
        <ele>78.0040283</ele>
        <time>2012-03-18T08:40:58Z</time>
      </trkpt>
      <trkpt lat="47.36757" lon="-0.28756">
        <ele>80.4074707</ele>
        <time>2012-03-18T08:41:06Z</time>
      </trkpt>
      <trkpt lat="47.36756" lon="-0.28753">
        <ele>82.3300781</ele>
        <time>2012-03-18T08:41:13Z</time>
      </trkpt>
      <trkpt lat="47.36757" lon="-0.28753">
        <ele>82.810791</ele>
        <time>2012-03-18T08:41:19Z</time>
      </trkpt>
      <trkpt lat="47.36761" lon="-0.28754">
        <ele>81.3687744</ele>
        <time>2012-03-18T08:41:28Z</time>
      </trkpt>
      <trkpt lat="47.36762" lon="-0.28756">
        <ele>80.4074707</ele>
        <time>2012-03-18T08:41:32Z</time>
      </trkpt>
      <trkpt lat="47.3676" lon="-0.28755">
        <ele>80.8881836</ele>
        <time>2012-03-18T08:41:40Z</time>
      </trkpt>
      <trkpt lat="47.36758" lon="-0.28754">
        <ele>80.4074707</ele>
        <time>2012-03-18T08:41:47Z</time>
      </trkpt>
      <trkpt lat="47.3676" lon="-0.28752">
        <ele>78.4847412</ele>
        <time>2012-03-18T08:41:53Z</time>
      </trkpt>
      <trkpt lat="47.36758" lon="-0.28756">
        <ele>77.5234375</ele>
        <time>2012-03-18T08:42:01Z</time>
      </trkpt>
      <trkpt lat="47.36759" lon="-0.28756">
        <ele>76.5621338</ele>
        <time>2012-03-18T08:42:08Z</time>
      </trkpt>
      <trkpt lat="47.36761" lon="-0.28754">
        <ele>75.6008301</ele>
        <time>2012-03-18T08:42:14Z</time>
      </trkpt>
      <trkpt lat="47.36762" lon="-0.28754">
        <ele>73.1976318</ele>
        <time>2012-03-18T08:42:22Z</time>
      </trkpt>
      <trkpt lat="47.3676" lon="-0.28757">
        <ele>73.1976318</ele>
        <time>2012-03-18T08:42:29Z</time>
      </trkpt>
      <trkpt lat="47.3676" lon="-0.28757">
        <ele>72.7169189</ele>
        <time>2012-03-18T08:42:41Z</time>
      </trkpt>
      <trkpt lat="47.3676" lon="-0.28756">
        <ele>73.6782227</ele>
        <time>2012-03-18T08:42:51Z</time>
      </trkpt>
      <trkpt lat="47.36758" lon="-0.28759">
        <ele>73.1976318</ele>
        <time>2012-03-18T08:42:57Z</time>
      </trkpt>
      <trkpt lat="47.36756" lon="-0.28759">
        <ele>72.7169189</ele>
        <time>2012-03-18T08:43:04Z</time>
      </trkpt>
      <trkpt lat="47.36755" lon="-0.28758">
        <ele>73.1976318</ele>
        <time>2012-03-18T08:43:16Z</time>
      </trkpt>
      <trkpt lat="47.36755" lon="-0.28758">
        <ele>73.6782227</ele>
        <time>2012-03-18T08:43:28Z</time>
      </trkpt>
      <trkpt lat="47.36755" lon="-0.28758">
        <ele>73.1976318</ele>
        <time>2012-03-18T08:43:45Z</time>
      </trkpt>
      <trkpt lat="47.36757" lon="-0.28755">
        <ele>72.7169189</ele>
        <time>2012-03-18T08:43:50Z</time>
      </trkpt>
      <trkpt lat="47.3676" lon="-0.28753">
        <ele>71.7554932</ele>
        <time>2012-03-18T08:43:54Z</time>
      </trkpt>
      <trkpt lat="47.36759" lon="-0.28752">
        <ele>72.2362061</ele>
        <time>2012-03-18T08:44:00Z</time>
      </trkpt>
      <trkpt lat="47.3676" lon="-0.28751">
        <ele>72.7169189</ele>
        <time>2012-03-18T08:44:07Z</time>
      </trkpt>
      <trkpt lat="47.3676" lon="-0.28751">
        <ele>73.1976318</ele>
        <time>2012-03-18T08:44:14Z</time>
      </trkpt>
      <trkpt lat="47.3676" lon="-0.28751">
        <ele>74.6395264</ele>
        <time>2012-03-18T08:44:24Z</time>
      </trkpt>
      <trkpt lat="47.36759" lon="-0.28752">
        <ele>74.1588135</ele>
        <time>2012-03-18T08:44:36Z</time>
      </trkpt>
      <trkpt lat="47.3676" lon="-0.28752">
        <ele>76.0814209</ele>
        <time>2012-03-18T08:44:53Z</time>
      </trkpt>
      <trkpt lat="47.36759" lon="-0.28752">
        <ele>74.6395264</ele>
        <time>2012-03-18T08:44:59Z</time>
      </trkpt>
      <trkpt lat="47.36759" lon="-0.28753">
        <ele>75.6008301</ele>
        <time>2012-03-18T08:45:08Z</time>
      </trkpt>
      <trkpt lat="47.36759" lon="-0.28753">
        <ele>78.0040283</ele>
        <time>2012-03-18T08:45:23Z</time>
      </trkpt>
      <trkpt lat="47.36758" lon="-0.28752">
        <ele>78.4847412</ele>
        <time>2012-03-18T08:45:35Z</time>
      </trkpt>
      <trkpt lat="47.36759" lon="-0.28752">
        <ele>78.4847412</ele>
        <time>2012-03-18T08:45:41Z</time>
      </trkpt>
      <trkpt lat="47.36759" lon="-0.28752">
        <ele>78.4847412</ele>
        <time>2012-03-18T08:45:47Z</time>
      </trkpt>
      <trkpt lat="47.36761" lon="-0.28754">
        <ele>77.0428467</ele>
        <time>2012-03-18T08:45:56Z</time>
      </trkpt>
      <trkpt lat="47.36765" lon="-0.28755">
        <ele>76.0814209</ele>
        <time>2012-03-18T08:46:11Z</time>
      </trkpt>
      <trkpt lat="47.36765" lon="-0.28755">
        <ele>76.0814209</ele>
        <time>2012-03-18T08:46:14Z</time>
      </trkpt>
      <trkpt lat="47.36763" lon="-0.28754">
        <ele>75.1202393</ele>
        <time>2012-03-18T08:46:21Z</time>
      </trkpt>
      <trkpt lat="47.36762" lon="-0.28756">
        <ele>74.6395264</ele>
        <time>2012-03-18T08:46:34Z</time>
      </trkpt>
      <trkpt lat="47.36765" lon="-0.28755">
        <ele>74.6395264</ele>
        <time>2012-03-18T08:46:38Z</time>
      </trkpt>
      <trkpt lat="47.36768" lon="-0.28749">
        <ele>75.1202393</ele>
        <time>2012-03-18T08:46:43Z</time>
      </trkpt>
      <trkpt lat="47.36769" lon="-0.28748">
        <ele>75.6008301</ele>
        <time>2012-03-18T08:46:49Z</time>
      </trkpt>
      <trkpt lat="47.36767" lon="-0.28746">
        <ele>77.5234375</ele>
        <time>2012-03-18T08:46:56Z</time>
      </trkpt>
      <trkpt lat="47.36767" lon="-0.28742">
        <ele>78.0040283</ele>
        <time>2012-03-18T08:47:01Z</time>
      </trkpt>
      <trkpt lat="47.36765" lon="-0.28737">
        <ele>78.9654541</ele>
        <time>2012-03-18T08:47:12Z</time>
      </trkpt>
      <trkpt lat="47.36764" lon="-0.28733">
        <ele>78.0040283</ele>
        <time>2012-03-18T08:47:27Z</time>
      </trkpt>
      <trkpt lat="47.36763" lon="-0.28732">
        <ele>76.5621338</ele>
        <time>2012-03-18T08:47:35Z</time>
      </trkpt>
      <trkpt lat="47.36763" lon="-0.28731">
        <ele>75.6008301</ele>
        <time>2012-03-18T08:47:48Z</time>
      </trkpt>
      <trkpt lat="47.36765" lon="-0.28726">
        <ele>75.1202393</ele>
        <time>2012-03-18T08:47:56Z</time>
      </trkpt>
      <trkpt lat="47.36767" lon="-0.28722">
        <ele>74.1588135</ele>
        <time>2012-03-18T08:48:00Z</time>
      </trkpt>
      <trkpt lat="47.36771" lon="-0.28712">
        <ele>73.6782227</ele>
        <time>2012-03-18T08:48:03Z</time>
      </trkpt>
      <trkpt lat="47.36774" lon="-0.28704">
        <ele>72.7169189</ele>
        <time>2012-03-18T08:48:05Z</time>
      </trkpt>
      <trkpt lat="47.36775" lon="-0.287">
        <ele>72.2362061</ele>
        <time>2012-03-18T08:48:06Z</time>
      </trkpt>
      <trkpt lat="47.36776" lon="-0.28696">
        <ele>71.7554932</ele>
        <time>2012-03-18T08:48:07Z</time>
      </trkpt>
      <trkpt lat="47.36777" lon="-0.28692">
        <ele>70.7941895</ele>
        <time>2012-03-18T08:48:08Z</time>
      </trkpt>
      <trkpt lat="47.36789" lon="-0.28657">
        <ele>67.4296875</ele>
        <time>2012-03-18T08:48:16Z</time>
      </trkpt>
      <trkpt lat="47.36783" lon="-0.2864">
        <ele>67.4296875</ele>
        <time>2012-03-18T08:48:20Z</time>
      </trkpt>
      <trkpt lat="47.36767" lon="-0.28613">
        <ele>68.871582</ele>
        <time>2012-03-18T08:48:27Z</time>
      </trkpt>
      <trkpt lat="47.36752" lon="-0.2859">
        <ele>69.3522949</ele>
        <time>2012-03-18T08:48:33Z</time>
      </trkpt>
      <trkpt lat="47.36738" lon="-0.28569">
        <ele>68.871582</ele>
        <time>2012-03-18T08:48:37Z</time>
      </trkpt>
      <trkpt lat="47.36712" lon="-0.28553">
        <ele>69.8328857</ele>
        <time>2012-03-18T08:48:43Z</time>
      </trkpt>
      <trkpt lat="47.36698" lon="-0.2854">
        <ele>69.8328857</ele>
        <time>2012-03-18T08:48:46Z</time>
      </trkpt>
      <trkpt lat="47.36682" lon="-0.28528">
        <ele>69.8328857</ele>
        <time>2012-03-18T08:48:49Z</time>
      </trkpt>
      <trkpt lat="47.36651" lon="-0.28507">
        <ele>67.9102783</ele>
        <time>2012-03-18T08:48:55Z</time>
      </trkpt>
      <trkpt lat="47.36627" lon="-0.28488">
        <ele>66.9489746</ele>
        <time>2012-03-18T08:49:01Z</time>
      </trkpt>
      <trkpt lat="47.36624" lon="-0.28485">
        <ele>66.9489746</ele>
        <time>2012-03-18T08:49:02Z</time>
      </trkpt>
      <trkpt lat="47.36613" lon="-0.28478">
        <ele>66.9489746</ele>
        <time>2012-03-18T08:49:05Z</time>
      </trkpt>
      <trkpt lat="47.36601" lon="-0.28458">
        <ele>67.9102783</ele>
        <time>2012-03-18T08:49:10Z</time>
      </trkpt>
      <trkpt lat="47.36592" lon="-0.28426">
        <ele>68.871582</ele>
        <time>2012-03-18T08:49:16Z</time>
      </trkpt>
      <trkpt lat="47.36583" lon="-0.284">
        <ele>71.2749023</ele>
        <time>2012-03-18T08:49:21Z</time>
      </trkpt>
      <trkpt lat="47.36573" lon="-0.28377">
        <ele>72.2362061</ele>
        <time>2012-03-18T08:49:26Z</time>
      </trkpt>
      <trkpt lat="47.36556" lon="-0.2834">
        <ele>75.6008301</ele>
        <time>2012-03-18T08:49:33Z</time>
      </trkpt>
      <trkpt lat="47.36546" lon="-0.28319">
        <ele>74.1588135</ele>
        <time>2012-03-18T08:49:37Z</time>
      </trkpt>
      <trkpt lat="47.36537" lon="-0.283">
        <ele>72.7169189</ele>
        <time>2012-03-18T08:49:41Z</time>
      </trkpt>
      <trkpt lat="47.36528" lon="-0.28285">
        <ele>72.2362061</ele>
        <time>2012-03-18T08:49:45Z</time>
      </trkpt>
      <trkpt lat="47.3651" lon="-0.28254">
        <ele>73.6782227</ele>
        <time>2012-03-18T08:49:52Z</time>
      </trkpt>
      <trkpt lat="47.36501" lon="-0.28242">
        <ele>72.7169189</ele>
        <time>2012-03-18T08:49:57Z</time>
      </trkpt>
      <trkpt lat="47.36493" lon="-0.28227">
        <ele>73.6782227</ele>
        <time>2012-03-18T08:50:01Z</time>
      </trkpt>
      <trkpt lat="47.36477" lon="-0.28206">
        <ele>72.7169189</ele>
        <time>2012-03-18T08:50:05Z</time>
      </trkpt>
      <trkpt lat="47.36458" lon="-0.28178">
        <ele>69.8328857</ele>
        <time>2012-03-18T08:50:09Z</time>
      </trkpt>
      <trkpt lat="47.36434" lon="-0.28144">
        <ele>66.9489746</ele>
        <time>2012-03-18T08:50:14Z</time>
      </trkpt>
      <trkpt lat="47.36423" lon="-0.28118">
        <ele>65.9876709</ele>
        <time>2012-03-18T08:50:17Z</time>
      </trkpt>
      <trkpt lat="47.36394" lon="-0.28067">
        <ele>64.0650635</ele>
        <time>2012-03-18T08:50:24Z</time>
      </trkpt>
      <trkpt lat="47.36391" lon="-0.28061">
        <ele>63.5843506</ele>
        <time>2012-03-18T08:50:25Z</time>
      </trkpt>
      <trkpt lat="47.36383" lon="-0.28052">
        <ele>63.5843506</ele>
        <time>2012-03-18T08:50:27Z</time>
      </trkpt>
      <trkpt lat="47.36368" lon="-0.2803">
        <ele>63.1036377</ele>
        <time>2012-03-18T08:50:32Z</time>
      </trkpt>
      <trkpt lat="47.36358" lon="-0.28016">
        <ele>63.1036377</ele>
        <time>2012-03-18T08:50:36Z</time>
      </trkpt>
      <trkpt lat="47.36345" lon="-0.27992">
        <ele>63.1036377</ele>
        <time>2012-03-18T08:50:42Z</time>
      </trkpt>
      <trkpt lat="47.36333" lon="-0.2797">
        <ele>63.1036377</ele>
        <time>2012-03-18T08:50:48Z</time>
      </trkpt>
      <trkpt lat="47.36323" lon="-0.27947">
        <ele>64.0650635</ele>
        <time>2012-03-18T08:50:53Z</time>
      </trkpt>
      <trkpt lat="47.36315" lon="-0.27926">
        <ele>65.0263672</ele>
        <time>2012-03-18T08:50:58Z</time>
      </trkpt>
      <trkpt lat="47.36304" lon="-0.27901">
        <ele>65.9876709</ele>
        <time>2012-03-18T08:51:04Z</time>
      </trkpt>
      <trkpt lat="47.36296" lon="-0.27887">
        <ele>66.9489746</ele>
        <time>2012-03-18T08:51:08Z</time>
      </trkpt>
      <trkpt lat="47.36284" lon="-0.27863">
        <ele>66.4682617</ele>
        <time>2012-03-18T08:51:14Z</time>
      </trkpt>
      <trkpt lat="47.36264" lon="-0.27839">
        <ele>65.9876709</ele>
        <time>2012-03-18T08:51:21Z</time>
      </trkpt>
      <trkpt lat="47.36242" lon="-0.27811">
        <ele>65.0263672</ele>
        <time>2012-03-18T08:51:28Z</time>
      </trkpt>
      <trkpt lat="47.36214" lon="-0.2778">
        <ele>63.1036377</ele>
        <time>2012-03-18T08:51:36Z</time>
      </trkpt>
      <trkpt lat="47.36185" lon="-0.27754">
        <ele>63.1036377</ele>
        <time>2012-03-18T08:51:44Z</time>
      </trkpt>
      <trkpt lat="47.36155" lon="-0.2773">
        <ele>64.0650635</ele>
        <time>2012-03-18T08:51:52Z</time>
      </trkpt>
      <trkpt lat="47.36147" lon="-0.27726">
        <ele>63.1036377</ele>
        <time>2012-03-18T08:51:54Z</time>
      </trkpt>
      <trkpt lat="47.36115" lon="-0.27706">
        <ele>62.6229248</ele>
        <time>2012-03-18T08:52:02Z</time>
      </trkpt>
      <trkpt lat="47.36084" lon="-0.27689">
        <ele>62.142334</ele>
        <time>2012-03-18T08:52:10Z</time>
      </trkpt>
      <trkpt lat="47.3606" lon="-0.27671">
        <ele>61.1810303</ele>
        <time>2012-03-18T08:52:17Z</time>
      </trkpt>
      <trkpt lat="47.36049" lon="-0.27661">
        <ele>60.2197266</ele>
        <time>2012-03-18T08:52:20Z</time>
      </trkpt>
      <trkpt lat="47.3604" lon="-0.27652">
        <ele>59.7391357</ele>
        <time>2012-03-18T08:52:22Z</time>
      </trkpt>
      <trkpt lat="47.36014" lon="-0.27614">
        <ele>56.3745117</ele>
        <time>2012-03-18T08:52:27Z</time>
      </trkpt>
      <trkpt lat="47.35976" lon="-0.27576">
        <ele>48.68396</ele>
        <time>2012-03-18T08:52:33Z</time>
      </trkpt>
      <trkpt lat="47.35953" lon="-0.27558">
        <ele>44.3580322</ele>
        <time>2012-03-18T08:52:37Z</time>
      </trkpt>
      <trkpt lat="47.35931" lon="-0.27546">
        <ele>40.9934082</ele>
        <time>2012-03-18T08:52:41Z</time>
      </trkpt>
      <trkpt lat="47.3591" lon="-0.27525">
        <ele>39.5512695</ele>
        <time>2012-03-18T08:52:45Z</time>
      </trkpt>
      <trkpt lat="47.35901" lon="-0.27512">
        <ele>39.0706787</ele>
        <time>2012-03-18T08:52:47Z</time>
      </trkpt>
      <trkpt lat="47.35893" lon="-0.27498">
        <ele>38.109375</ele>
        <time>2012-03-18T08:52:49Z</time>
      </trkpt>
      <trkpt lat="47.35874" lon="-0.27477">
        <ele>37.6286621</ele>
        <time>2012-03-18T08:52:53Z</time>
      </trkpt>
      <trkpt lat="47.35862" lon="-0.27469">
        <ele>37.6286621</ele>
        <time>2012-03-18T08:52:56Z</time>
      </trkpt>
      <trkpt lat="47.35851" lon="-0.27463">
        <ele>38.109375</ele>
        <time>2012-03-18T08:52:59Z</time>
      </trkpt>
      <trkpt lat="47.35838" lon="-0.27459">
        <ele>38.109375</ele>
        <time>2012-03-18T08:53:03Z</time>
      </trkpt>
      <trkpt lat="47.35812" lon="-0.27453">
        <ele>38.5900879</ele>
        <time>2012-03-18T08:53:09Z</time>
      </trkpt>
      <trkpt lat="47.35795" lon="-0.27443">
        <ele>40.0321045</ele>
        <time>2012-03-18T08:53:13Z</time>
      </trkpt>
      <trkpt lat="47.35783" lon="-0.27436">
        <ele>40.9934082</ele>
        <time>2012-03-18T08:53:16Z</time>
      </trkpt>
      <trkpt lat="47.35771" lon="-0.2743">
        <ele>41.473999</ele>
        <time>2012-03-18T08:53:19Z</time>
      </trkpt>
      <trkpt lat="47.35756" lon="-0.27421">
        <ele>41.9547119</ele>
        <time>2012-03-18T08:53:23Z</time>
      </trkpt>
      <trkpt lat="47.35749" lon="-0.27417">
        <ele>42.4354248</ele>
        <time>2012-03-18T08:53:25Z</time>
      </trkpt>
      <trkpt lat="47.35708" lon="-0.27395">
        <ele>43.8773193</ele>
        <time>2012-03-18T08:53:36Z</time>
      </trkpt>
      <trkpt lat="47.3569" lon="-0.27387">
        <ele>44.3580322</ele>
        <time>2012-03-18T08:53:42Z</time>
      </trkpt>
      <trkpt lat="47.35677" lon="-0.27386">
        <ele>44.838623</ele>
        <time>2012-03-18T08:53:48Z</time>
      </trkpt>
      <trkpt lat="47.35643" lon="-0.27388">
        <ele>45.7999268</ele>
        <time>2012-03-18T08:53:58Z</time>
      </trkpt>
      <trkpt lat="47.3561" lon="-0.27393">
        <ele>47.7225342</ele>
        <time>2012-03-18T08:54:06Z</time>
      </trkpt>
      <trkpt lat="47.35571" lon="-0.27393">
        <ele>48.68396</ele>
        <time>2012-03-18T08:54:16Z</time>
      </trkpt>
      <trkpt lat="47.35534" lon="-0.27389">
        <ele>48.68396</ele>
        <time>2012-03-18T08:54:26Z</time>
      </trkpt>
      <trkpt lat="47.35501" lon="-0.27386">
        <ele>48.68396</ele>
        <time>2012-03-18T08:54:35Z</time>
      </trkpt>
      <trkpt lat="47.35456" lon="-0.27381">
        <ele>48.68396</ele>
        <time>2012-03-18T08:54:47Z</time>
      </trkpt>
      <trkpt lat="47.35434" lon="-0.27387">
        <ele>49.6452637</ele>
        <time>2012-03-18T08:54:53Z</time>
      </trkpt>
      <trkpt lat="47.35416" lon="-0.27405">
        <ele>50.1259766</ele>
        <time>2012-03-18T08:54:59Z</time>
      </trkpt>
      <trkpt lat="47.35392" lon="-0.2744">
        <ele>51.5678711</ele>
        <time>2012-03-18T08:55:08Z</time>
      </trkpt>
      <trkpt lat="47.35369" lon="-0.27468">
        <ele>51.0871582</ele>
        <time>2012-03-18T08:55:16Z</time>
      </trkpt>
      <trkpt lat="47.35342" lon="-0.27503">
        <ele>50.6065674</ele>
        <time>2012-03-18T08:55:25Z</time>
      </trkpt>
      <trkpt lat="47.35314" lon="-0.27543">
        <ele>51.0871582</ele>
        <time>2012-03-18T08:55:35Z</time>
      </trkpt>
      <trkpt lat="47.35301" lon="-0.27563">
        <ele>51.5678711</ele>
        <time>2012-03-18T08:55:41Z</time>
      </trkpt>
      <trkpt lat="47.35288" lon="-0.27582">
        <ele>52.048584</ele>
        <time>2012-03-18T08:55:48Z</time>
      </trkpt>
      <trkpt lat="47.35272" lon="-0.27612">
        <ele>52.048584</ele>
        <time>2012-03-18T08:55:55Z</time>
      </trkpt>
      <trkpt lat="47.35248" lon="-0.2766">
        <ele>51.5678711</ele>
        <time>2012-03-18T08:56:05Z</time>
      </trkpt>
      <trkpt lat="47.35229" lon="-0.27707">
        <ele>52.5291748</ele>
        <time>2012-03-18T08:56:14Z</time>
      </trkpt>
      <trkpt lat="47.35209" lon="-0.27755">
        <ele>53.0097656</ele>
        <time>2012-03-18T08:56:23Z</time>
      </trkpt>
      <trkpt lat="47.35191" lon="-0.27801">
        <ele>53.4904785</ele>
        <time>2012-03-18T08:56:32Z</time>
      </trkpt>
      <trkpt lat="47.35172" lon="-0.27845">
        <ele>53.9711914</ele>
        <time>2012-03-18T08:56:41Z</time>
      </trkpt>
      <trkpt lat="47.35154" lon="-0.27885">
        <ele>54.932373</ele>
        <time>2012-03-18T08:56:49Z</time>
      </trkpt>
      <trkpt lat="47.35131" lon="-0.27922">
        <ele>54.4517822</ele>
        <time>2012-03-18T08:56:57Z</time>
      </trkpt>
      <trkpt lat="47.35101" lon="-0.27967">
        <ele>54.932373</ele>
        <time>2012-03-18T08:57:07Z</time>
      </trkpt>
      <trkpt lat="47.35067" lon="-0.28014">
        <ele>54.932373</ele>
        <time>2012-03-18T08:57:18Z</time>
      </trkpt>
      <trkpt lat="47.35049" lon="-0.28042">
        <ele>54.932373</ele>
        <time>2012-03-18T08:57:24Z</time>
      </trkpt>
      <trkpt lat="47.35033" lon="-0.28058">
        <ele>55.4130859</ele>
        <time>2012-03-18T08:57:29Z</time>
      </trkpt>
      <trkpt lat="47.35002" lon="-0.28075">
        <ele>56.8551025</ele>
        <time>2012-03-18T08:57:38Z</time>
      </trkpt>
      <trkpt lat="47.34988" lon="-0.28095">
        <ele>58.2971191</ele>
        <time>2012-03-18T08:57:44Z</time>
      </trkpt>
      <trkpt lat="47.34972" lon="-0.28131">
        <ele>60.2197266</ele>
        <time>2012-03-18T08:57:53Z</time>
      </trkpt>
      <trkpt lat="47.34951" lon="-0.28173">
        <ele>61.1810303</ele>
        <time>2012-03-18T08:58:03Z</time>
      </trkpt>
      <trkpt lat="47.3493" lon="-0.28198">
        <ele>62.142334</ele>
        <time>2012-03-18T08:58:11Z</time>
      </trkpt>
      <trkpt lat="47.34896" lon="-0.28231">
        <ele>63.1036377</ele>
        <time>2012-03-18T08:58:23Z</time>
      </trkpt>
      <trkpt lat="47.34864" lon="-0.28262">
        <ele>64.0650635</ele>
        <time>2012-03-18T08:58:34Z</time>
      </trkpt>
      <trkpt lat="47.34842" lon="-0.28283">
        <ele>64.5456543</ele>
        <time>2012-03-18T08:58:42Z</time>
      </trkpt>
      <trkpt lat="47.34831" lon="-0.28293">
        <ele>64.5456543</ele>
        <time>2012-03-18T08:58:46Z</time>
      </trkpt>
      <trkpt lat="47.34813" lon="-0.28287">
        <ele>64.0650635</ele>
        <time>2012-03-18T08:58:52Z</time>
      </trkpt>
      <trkpt lat="47.34781" lon="-0.2828">
        <ele>63.5843506</ele>
        <time>2012-03-18T08:59:03Z</time>
      </trkpt>
      <trkpt lat="47.34761" lon="-0.28276">
        <ele>64.0650635</ele>
        <time>2012-03-18T08:59:11Z</time>
      </trkpt>
      <trkpt lat="47.34742" lon="-0.28274">
        <ele>64.0650635</ele>
        <time>2012-03-18T08:59:19Z</time>
      </trkpt>
      <trkpt lat="47.34721" lon="-0.28271">
        <ele>65.0263672</ele>
        <time>2012-03-18T08:59:28Z</time>
      </trkpt>
      <trkpt lat="47.34706" lon="-0.28268">
        <ele>65.5070801</ele>
        <time>2012-03-18T08:59:35Z</time>
      </trkpt>
      <trkpt lat="47.34683" lon="-0.28263">
        <ele>69.3522949</ele>
        <time>2012-03-18T08:59:45Z</time>
      </trkpt>
      <trkpt lat="47.34662" lon="-0.28258">
        <ele>71.7554932</ele>
        <time>2012-03-18T08:59:54Z</time>
      </trkpt>
      <trkpt lat="47.34641" lon="-0.28251">
        <ele>74.6395264</ele>
        <time>2012-03-18T09:00:03Z</time>
      </trkpt>
      <trkpt lat="47.34635" lon="-0.28235">
        <ele>74.6395264</ele>
        <time>2012-03-18T09:00:08Z</time>
      </trkpt>
      <trkpt lat="47.34634" lon="-0.28215">
        <ele>75.1202393</ele>
        <time>2012-03-18T09:00:14Z</time>
      </trkpt>
      <trkpt lat="47.34632" lon="-0.28187">
        <ele>75.6008301</ele>
        <time>2012-03-18T09:00:22Z</time>
      </trkpt>
      <trkpt lat="47.34626" lon="-0.28154">
        <ele>76.5621338</ele>
        <time>2012-03-18T09:00:31Z</time>
      </trkpt>
      <trkpt lat="47.3462" lon="-0.28117">
        <ele>77.0428467</ele>
        <time>2012-03-18T09:00:41Z</time>
      </trkpt>
      <trkpt lat="47.34613" lon="-0.28084">
        <ele>77.0428467</ele>
        <time>2012-03-18T09:00:50Z</time>
      </trkpt>
      <trkpt lat="47.34607" lon="-0.28054">
        <ele>76.5621338</ele>
        <time>2012-03-18T09:00:57Z</time>
      </trkpt>
      <trkpt lat="47.34598" lon="-0.28011">
        <ele>77.5234375</ele>
        <time>2012-03-18T09:01:07Z</time>
      </trkpt>
      <trkpt lat="47.34589" lon="-0.27975">
        <ele>78.0040283</ele>
        <time>2012-03-18T09:01:16Z</time>
      </trkpt>
      <trkpt lat="47.34587" lon="-0.27968">
        <ele>78.0040283</ele>
        <time>2012-03-18T09:01:21Z</time>
      </trkpt>
      <trkpt lat="47.34588" lon="-0.27969">
        <ele>77.5234375</ele>
        <time>2012-03-18T09:01:30Z</time>
      </trkpt>
      <trkpt lat="47.34588" lon="-0.27969">
        <ele>77.5234375</ele>
        <time>2012-03-18T09:01:35Z</time>
      </trkpt>
      <trkpt lat="47.34588" lon="-0.27969">
        <ele>77.0428467</ele>
        <time>2012-03-18T09:01:36Z</time>
      </trkpt>
      <trkpt lat="47.34588" lon="-0.27966">
        <ele>77.0428467</ele>
        <time>2012-03-18T09:01:38Z</time>
      </trkpt>
      <trkpt lat="47.34592" lon="-0.27955">
        <ele>77.0428467</ele>
        <time>2012-03-18T09:01:44Z</time>
      </trkpt>
      <trkpt lat="47.34595" lon="-0.27952">
        <ele>77.0428467</ele>
        <time>2012-03-18T09:01:46Z</time>
      </trkpt>
      <trkpt lat="47.34601" lon="-0.27942">
        <ele>77.0428467</ele>
        <time>2012-03-18T09:01:51Z</time>
      </trkpt>
      <trkpt lat="47.34609" lon="-0.27922">
        <ele>76.5621338</ele>
        <time>2012-03-18T09:01:58Z</time>
      </trkpt>
      <trkpt lat="47.3462" lon="-0.27899">
        <ele>76.0814209</ele>
        <time>2012-03-18T09:02:05Z</time>
      </trkpt>
      <trkpt lat="47.34632" lon="-0.27873">
        <ele>75.6008301</ele>
        <time>2012-03-18T09:02:12Z</time>
      </trkpt>
      <trkpt lat="47.34643" lon="-0.27848">
        <ele>75.1202393</ele>
        <time>2012-03-18T09:02:18Z</time>
      </trkpt>
      <trkpt lat="47.34657" lon="-0.27819">
        <ele>74.1588135</ele>
        <time>2012-03-18T09:02:24Z</time>
      </trkpt>
      <trkpt lat="47.34673" lon="-0.27787">
        <ele>74.1588135</ele>
        <time>2012-03-18T09:02:30Z</time>
      </trkpt>
      <trkpt lat="47.34685" lon="-0.27762">
        <ele>74.6395264</ele>
        <time>2012-03-18T09:02:35Z</time>
      </trkpt>
      <trkpt lat="47.34699" lon="-0.2773">
        <ele>76.0814209</ele>
        <time>2012-03-18T09:02:42Z</time>
      </trkpt>
      <trkpt lat="47.3471" lon="-0.27702">
        <ele>76.5621338</ele>
        <time>2012-03-18T09:02:49Z</time>
      </trkpt>
      <trkpt lat="47.34706" lon="-0.27684">
        <ele>77.0428467</ele>
        <time>2012-03-18T09:02:53Z</time>
      </trkpt>
      <trkpt lat="47.34693" lon="-0.27652">
        <ele>77.5234375</ele>
        <time>2012-03-18T09:03:00Z</time>
      </trkpt>
      <trkpt lat="47.34678" lon="-0.27614">
        <ele>77.5234375</ele>
        <time>2012-03-18T09:03:08Z</time>
      </trkpt>
      <trkpt lat="47.34665" lon="-0.27578">
        <ele>77.5234375</ele>
        <time>2012-03-18T09:03:15Z</time>
      </trkpt>
      <trkpt lat="47.34647" lon="-0.27533">
        <ele>77.0428467</ele>
        <time>2012-03-18T09:03:23Z</time>
      </trkpt>
      <trkpt lat="47.34628" lon="-0.27487">
        <ele>76.5621338</ele>
        <time>2012-03-18T09:03:31Z</time>
      </trkpt>
      <trkpt lat="47.34602" lon="-0.27422">
        <ele>75.6008301</ele>
        <time>2012-03-18T09:03:42Z</time>
      </trkpt>
      <trkpt lat="47.34583" lon="-0.27374">
        <ele>75.6008301</ele>
        <time>2012-03-18T09:03:51Z</time>
      </trkpt>
      <trkpt lat="47.34567" lon="-0.27319">
        <ele>75.6008301</ele>
        <time>2012-03-18T09:04:01Z</time>
      </trkpt>
      <trkpt lat="47.34551" lon="-0.27269">
        <ele>75.1202393</ele>
        <time>2012-03-18T09:04:10Z</time>
      </trkpt>
      <trkpt lat="47.34543" lon="-0.27216">
        <ele>75.1202393</ele>
        <time>2012-03-18T09:04:19Z</time>
      </trkpt>
      <trkpt lat="47.34544" lon="-0.2717">
        <ele>75.1202393</ele>
        <time>2012-03-18T09:04:27Z</time>
      </trkpt>
      <trkpt lat="47.34534" lon="-0.27165">
        <ele>75.1202393</ele>
        <time>2012-03-18T09:04:31Z</time>
      </trkpt>
      <trkpt lat="47.34509" lon="-0.27186">
        <ele>76.0814209</ele>
        <time>2012-03-18T09:04:39Z</time>
      </trkpt>
      <trkpt lat="47.34484" lon="-0.27207">
        <ele>77.0428467</ele>
        <time>2012-03-18T09:04:47Z</time>
      </trkpt>
      <trkpt lat="47.34451" lon="-0.27232">
        <ele>78.4847412</ele>
        <time>2012-03-18T09:04:57Z</time>
      </trkpt>
      <trkpt lat="47.34412" lon="-0.27263">
        <ele>80.4074707</ele>
        <time>2012-03-18T09:05:09Z</time>
      </trkpt>
      <trkpt lat="47.34392" lon="-0.27276">
        <ele>80.8881836</ele>
        <time>2012-03-18T09:05:15Z</time>
      </trkpt>
      <trkpt lat="47.34363" lon="-0.27298">
        <ele>81.8493652</ele>
        <time>2012-03-18T09:05:24Z</time>
      </trkpt>
      <trkpt lat="47.34322" lon="-0.27326">
        <ele>82.810791</ele>
        <time>2012-03-18T09:05:36Z</time>
      </trkpt>
      <trkpt lat="47.34287" lon="-0.27353">
        <ele>83.2913818</ele>
        <time>2012-03-18T09:05:46Z</time>
      </trkpt>
      <trkpt lat="47.34259" lon="-0.27376">
        <ele>81.3687744</ele>
        <time>2012-03-18T09:05:54Z</time>
      </trkpt>
      <trkpt lat="47.34257" lon="-0.27379">
        <ele>81.3687744</ele>
        <time>2012-03-18T09:05:55Z</time>
      </trkpt>
      <trkpt lat="47.34257" lon="-0.27383">
        <ele>81.3687744</ele>
        <time>2012-03-18T09:06:00Z</time>
      </trkpt>
      <trkpt lat="47.34256" lon="-0.27382">
        <ele>80.4074707</ele>
        <time>2012-03-18T09:06:08Z</time>
      </trkpt>
      <trkpt lat="47.34246" lon="-0.27385">
        <ele>78.4847412</ele>
        <time>2012-03-18T09:06:14Z</time>
      </trkpt>
      <trkpt lat="47.34244" lon="-0.27387">
        <ele>78.4847412</ele>
        <time>2012-03-18T09:06:15Z</time>
      </trkpt>
      <trkpt lat="47.34246" lon="-0.27399">
        <ele>77.5234375</ele>
        <time>2012-03-18T09:06:19Z</time>
      </trkpt>
      <trkpt lat="47.3426" lon="-0.27412">
        <ele>77.0428467</ele>
        <time>2012-03-18T09:06:24Z</time>
      </trkpt>
      <trkpt lat="47.34269" lon="-0.2742">
        <ele>76.5621338</ele>
        <time>2012-03-18T09:06:27Z</time>
      </trkpt>
      <trkpt lat="47.34287" lon="-0.27441">
        <ele>76.0814209</ele>
        <time>2012-03-18T09:06:34Z</time>
      </trkpt>
      <trkpt lat="47.34294" lon="-0.27451">
        <ele>75.6008301</ele>
        <time>2012-03-18T09:06:37Z</time>
      </trkpt>
      <trkpt lat="47.34304" lon="-0.27478">
        <ele>75.6008301</ele>
        <time>2012-03-18T09:06:43Z</time>
      </trkpt>
      <trkpt lat="47.34316" lon="-0.27527">
        <ele>76.0814209</ele>
        <time>2012-03-18T09:06:52Z</time>
      </trkpt>
      <trkpt lat="47.34329" lon="-0.2759">
        <ele>78.0040283</ele>
        <time>2012-03-18T09:07:04Z</time>
      </trkpt>
      <trkpt lat="47.34341" lon="-0.27647">
        <ele>79.4460449</ele>
        <time>2012-03-18T09:07:14Z</time>
      </trkpt>
      <trkpt lat="47.3436" lon="-0.277">
        <ele>79.9266357</ele>
        <time>2012-03-18T09:07:24Z</time>
      </trkpt>
      <trkpt lat="47.34378" lon="-0.27744">
        <ele>79.9266357</ele>
        <time>2012-03-18T09:07:33Z</time>
      </trkpt>
      <trkpt lat="47.34384" lon="-0.27764">
        <ele>79.4460449</ele>
        <time>2012-03-18T09:07:38Z</time>
      </trkpt>
      <trkpt lat="47.34373" lon="-0.27776">
        <ele>79.4460449</ele>
        <time>2012-03-18T09:07:43Z</time>
      </trkpt>
      <trkpt lat="47.34346" lon="-0.27791">
        <ele>79.4460449</ele>
        <time>2012-03-18T09:07:51Z</time>
      </trkpt>
      <trkpt lat="47.34329" lon="-0.27792">
        <ele>79.4460449</ele>
        <time>2012-03-18T09:07:55Z</time>
      </trkpt>
      <trkpt lat="47.34316" lon="-0.278">
        <ele>79.4460449</ele>
        <time>2012-03-18T09:07:58Z</time>
      </trkpt>
      <trkpt lat="47.34304" lon="-0.27806">
        <ele>78.9654541</ele>
        <time>2012-03-18T09:08:01Z</time>
      </trkpt>
      <trkpt lat="47.34288" lon="-0.27808">
        <ele>78.0040283</ele>
        <time>2012-03-18T09:08:04Z</time>
      </trkpt>
      <trkpt lat="47.34274" lon="-0.27814">
        <ele>78.0040283</ele>
        <time>2012-03-18T09:08:07Z</time>
      </trkpt>
      <trkpt lat="47.34269" lon="-0.27819">
        <ele>78.0040283</ele>
        <time>2012-03-18T09:08:08Z</time>
      </trkpt>
      <trkpt lat="47.3426" lon="-0.27835">
        <ele>78.0040283</ele>
        <time>2012-03-18T09:08:11Z</time>
      </trkpt>
      <trkpt lat="47.34254" lon="-0.27842">
        <ele>77.5234375</ele>
        <time>2012-03-18T09:08:13Z</time>
      </trkpt>
      <trkpt lat="47.3424" lon="-0.27853">
        <ele>76.5621338</ele>
        <time>2012-03-18T09:08:16Z</time>
      </trkpt>
      <trkpt lat="47.34221" lon="-0.27864">
        <ele>76.5621338</ele>
        <time>2012-03-18T09:08:21Z</time>
      </trkpt>
      <trkpt lat="47.34215" lon="-0.27866">
        <ele>76.5621338</ele>
        <time>2012-03-18T09:08:23Z</time>
      </trkpt>
      <trkpt lat="47.34192" lon="-0.27869">
        <ele>75.6008301</ele>
        <time>2012-03-18T09:08:28Z</time>
      </trkpt>
      <trkpt lat="47.3419" lon="-0.27874">
        <ele>76.0814209</ele>
        <time>2012-03-18T09:08:31Z</time>
      </trkpt>
      <trkpt lat="47.34191" lon="-0.27875">
        <ele>75.6008301</ele>
        <time>2012-03-18T09:08:33Z</time>
      </trkpt>
      <trkpt lat="47.34198" lon="-0.27875">
        <ele>75.1202393</ele>
        <time>2012-03-18T09:08:38Z</time>
      </trkpt>
      <trkpt lat="47.34203" lon="-0.27882">
        <ele>75.6008301</ele>
        <time>2012-03-18T09:08:42Z</time>
      </trkpt>
      <trkpt lat="47.342" lon="-0.27882">
        <ele>75.6008301</ele>
        <time>2012-03-18T09:08:45Z</time>
      </trkpt>
      <trkpt lat="47.34195" lon="-0.27885">
        <ele>76.0814209</ele>
        <time>2012-03-18T09:08:48Z</time>
      </trkpt>
      <trkpt lat="47.34195" lon="-0.27888">
        <ele>76.0814209</ele>
        <time>2012-03-18T09:08:53Z</time>
      </trkpt>
      <trkpt lat="47.34198" lon="-0.27893">
        <ele>75.6008301</ele>
        <time>2012-03-18T09:09:00Z</time>
      </trkpt>
      <trkpt lat="47.34196" lon="-0.27895">
        <ele>76.0814209</ele>
        <time>2012-03-18T09:09:04Z</time>
      </trkpt>
      <trkpt lat="47.34184" lon="-0.27904">
        <ele>76.0814209</ele>
        <time>2012-03-18T09:09:09Z</time>
      </trkpt>
      <trkpt lat="47.34155" lon="-0.27926">
        <ele>76.5621338</ele>
        <time>2012-03-18T09:09:17Z</time>
      </trkpt>
      <trkpt lat="47.34117" lon="-0.27952">
        <ele>77.0428467</ele>
        <time>2012-03-18T09:09:27Z</time>
      </trkpt>
      <trkpt lat="47.34081" lon="-0.27978">
        <ele>78.9654541</ele>
        <time>2012-03-18T09:09:37Z</time>
      </trkpt>
      <trkpt lat="47.34079" lon="-0.27979">
        <ele>78.9654541</ele>
        <time>2012-03-18T09:09:38Z</time>
      </trkpt>
      <trkpt lat="47.34079" lon="-0.27979">
        <ele>78.9654541</ele>
        <time>2012-03-18T09:09:45Z</time>
      </trkpt>
      <trkpt lat="47.34078" lon="-0.2798">
        <ele>78.9654541</ele>
        <time>2012-03-18T09:09:46Z</time>
      </trkpt>
      <trkpt lat="47.34071" lon="-0.27985">
        <ele>79.4460449</ele>
        <time>2012-03-18T09:09:50Z</time>
      </trkpt>
      <trkpt lat="47.34042" lon="-0.28004">
        <ele>81.3687744</ele>
        <time>2012-03-18T09:09:59Z</time>
      </trkpt>
      <trkpt lat="47.34036" lon="-0.28008">
        <ele>81.8493652</ele>
        <time>2012-03-18T09:10:03Z</time>
      </trkpt>
      <trkpt lat="47.34026" lon="-0.28015">
        <ele>82.810791</ele>
        <time>2012-03-18T09:10:07Z</time>
      </trkpt>
      <trkpt lat="47.34006" lon="-0.28029">
        <ele>83.7719727</ele>
        <time>2012-03-18T09:10:14Z</time>
      </trkpt>
      <trkpt lat="47.3399" lon="-0.28044">
        <ele>85.2139893</ele>
        <time>2012-03-18T09:10:21Z</time>
      </trkpt>
      <trkpt lat="47.33979" lon="-0.28053">
        <ele>86.6560059</ele>
        <time>2012-03-18T09:10:26Z</time>
      </trkpt>
      <trkpt lat="47.33956" lon="-0.28063">
        <ele>87.1365967</ele>
        <time>2012-03-18T09:10:34Z</time>
      </trkpt>
      <trkpt lat="47.33932" lon="-0.2807">
        <ele>88.0980225</ele>
        <time>2012-03-18T09:10:42Z</time>
      </trkpt>
      <trkpt lat="47.33898" lon="-0.28081">
        <ele>87.6171875</ele>
        <time>2012-03-18T09:10:53Z</time>
      </trkpt>
      <trkpt lat="47.33871" lon="-0.28093">
        <ele>87.1365967</ele>
        <time>2012-03-18T09:11:01Z</time>
      </trkpt>
      <trkpt lat="47.33841" lon="-0.28118">
        <ele>87.1365967</ele>
        <time>2012-03-18T09:11:10Z</time>
      </trkpt>
      <trkpt lat="47.33811" lon="-0.28148">
        <ele>88.0980225</ele>
        <time>2012-03-18T09:11:20Z</time>
      </trkpt>
      <trkpt lat="47.33784" lon="-0.28166">
        <ele>87.6171875</ele>
        <time>2012-03-18T09:11:28Z</time>
      </trkpt>
      <trkpt lat="47.33756" lon="-0.28177">
        <ele>86.175293</ele>
        <time>2012-03-18T09:11:36Z</time>
      </trkpt>
      <trkpt lat="47.33745" lon="-0.28192">
        <ele>85.6945801</ele>
        <time>2012-03-18T09:11:40Z</time>
      </trkpt>
      <trkpt lat="47.33743" lon="-0.28214">
        <ele>85.2139893</ele>
        <time>2012-03-18T09:11:44Z</time>
      </trkpt>
      <trkpt lat="47.33745" lon="-0.28237">
        <ele>87.1365967</ele>
        <time>2012-03-18T09:11:48Z</time>
      </trkpt>
      <trkpt lat="47.33757" lon="-0.28278">
        <ele>84.7333984</ele>
        <time>2012-03-18T09:11:54Z</time>
      </trkpt>
      <trkpt lat="47.33756" lon="-0.28318">
        <ele>81.8493652</ele>
        <time>2012-03-18T09:11:59Z</time>
      </trkpt>
      <trkpt lat="47.33741" lon="-0.28366">
        <ele>82.3300781</ele>
        <time>2012-03-18T09:12:06Z</time>
      </trkpt>
      <trkpt lat="47.33721" lon="-0.28405">
        <ele>80.8881836</ele>
        <time>2012-03-18T09:12:13Z</time>
      </trkpt>
      <trkpt lat="47.33716" lon="-0.28418">
        <ele>81.3687744</ele>
        <time>2012-03-18T09:12:15Z</time>
      </trkpt>
      <trkpt lat="47.33702" lon="-0.28455">
        <ele>84.2526855</ele>
        <time>2012-03-18T09:12:21Z</time>
      </trkpt>
      <trkpt lat="47.33689" lon="-0.28469">
        <ele>85.6945801</ele>
        <time>2012-03-18T09:12:25Z</time>
      </trkpt>
      <trkpt lat="47.33658" lon="-0.28477">
        <ele>86.6560059</ele>
        <time>2012-03-18T09:12:32Z</time>
      </trkpt>
      <trkpt lat="47.33621" lon="-0.28488">
        <ele>86.175293</ele>
        <time>2012-03-18T09:12:40Z</time>
      </trkpt>
      <trkpt lat="47.33582" lon="-0.28509">
        <ele>84.7333984</ele>
        <time>2012-03-18T09:12:48Z</time>
      </trkpt>
      <trkpt lat="47.33546" lon="-0.28531">
        <ele>84.2526855</ele>
        <time>2012-03-18T09:12:56Z</time>
      </trkpt>
      <trkpt lat="47.33515" lon="-0.2855">
        <ele>83.2913818</ele>
        <time>2012-03-18T09:13:03Z</time>
      </trkpt>
      <trkpt lat="47.33496" lon="-0.2858">
        <ele>82.810791</ele>
        <time>2012-03-18T09:13:08Z</time>
      </trkpt>
      <trkpt lat="47.33494" lon="-0.2859">
        <ele>82.3300781</ele>
        <time>2012-03-18T09:13:09Z</time>
      </trkpt>
      <trkpt lat="47.33495" lon="-0.28647">
        <ele>78.4847412</ele>
        <time>2012-03-18T09:13:14Z</time>
      </trkpt>
      <trkpt lat="47.33497" lon="-0.28664">
        <ele>75.1202393</ele>
        <time>2012-03-18T09:13:17Z</time>
      </trkpt>
      <trkpt lat="47.33489" lon="-0.28672">
        <ele>71.7554932</ele>
        <time>2012-03-18T09:13:19Z</time>
      </trkpt>
      <trkpt lat="47.33468" lon="-0.28684">
        <ele>70.3134766</ele>
        <time>2012-03-18T09:13:22Z</time>
      </trkpt>
      <trkpt lat="47.33451" lon="-0.28683">
        <ele>67.9102783</ele>
        <time>2012-03-18T09:13:26Z</time>
      </trkpt>
      <trkpt lat="47.33447" lon="-0.28677">
        <ele>67.4296875</ele>
        <time>2012-03-18T09:13:27Z</time>
      </trkpt>
      <trkpt lat="47.3342" lon="-0.28631">
        <ele>64.0650635</ele>
        <time>2012-03-18T09:13:35Z</time>
      </trkpt>
      <trkpt lat="47.33409" lon="-0.28616">
        <ele>63.1036377</ele>
        <time>2012-03-18T09:13:38Z</time>
      </trkpt>
      <trkpt lat="47.33391" lon="-0.28579">
        <ele>60.7003174</ele>
        <time>2012-03-18T09:13:44Z</time>
      </trkpt>
      <trkpt lat="47.3338" lon="-0.28538">
        <ele>58.77771</ele>
        <time>2012-03-18T09:13:50Z</time>
      </trkpt>
      <trkpt lat="47.33374" lon="-0.2849">
        <ele>56.8551025</ele>
        <time>2012-03-18T09:13:56Z</time>
      </trkpt>
      <trkpt lat="47.33374" lon="-0.28482">
        <ele>56.8551025</ele>
        <time>2012-03-18T09:13:57Z</time>
      </trkpt>
      <trkpt lat="47.33373" lon="-0.28439">
        <ele>54.932373</ele>
        <time>2012-03-18T09:14:03Z</time>
      </trkpt>
      <trkpt lat="47.33369" lon="-0.28424">
        <ele>54.4517822</ele>
        <time>2012-03-18T09:14:05Z</time>
      </trkpt>
      <trkpt lat="47.33364" lon="-0.2841">
        <ele>53.4904785</ele>
        <time>2012-03-18T09:14:07Z</time>
      </trkpt>
      <trkpt lat="47.33345" lon="-0.28391">
        <ele>51.5678711</ele>
        <time>2012-03-18T09:14:11Z</time>
      </trkpt>
      <trkpt lat="47.33327" lon="-0.28392">
        <ele>51.5678711</ele>
        <time>2012-03-18T09:14:14Z</time>
      </trkpt>
      <trkpt lat="47.33299" lon="-0.28403">
        <ele>51.0871582</ele>
        <time>2012-03-18T09:14:19Z</time>
      </trkpt>
      <trkpt lat="47.33288" lon="-0.28413">
        <ele>51.5678711</ele>
        <time>2012-03-18T09:14:22Z</time>
      </trkpt>
      <trkpt lat="47.33276" lon="-0.28411">
        <ele>52.048584</ele>
        <time>2012-03-18T09:14:26Z</time>
      </trkpt>
      <trkpt lat="47.33257" lon="-0.28387">
        <ele>52.048584</ele>
        <time>2012-03-18T09:14:31Z</time>
      </trkpt>
      <trkpt lat="47.33248" lon="-0.28383">
        <ele>52.048584</ele>
        <time>2012-03-18T09:14:33Z</time>
      </trkpt>
      <trkpt lat="47.33238" lon="-0.28398">
        <ele>52.048584</ele>
        <time>2012-03-18T09:14:36Z</time>
      </trkpt>
      <trkpt lat="47.33236" lon="-0.28405">
        <ele>52.048584</ele>
        <time>2012-03-18T09:14:37Z</time>
      </trkpt>
      <trkpt lat="47.33222" lon="-0.28455">
        <ele>53.0097656</ele>
        <time>2012-03-18T09:14:45Z</time>
      </trkpt>
      <trkpt lat="47.33217" lon="-0.28471">
        <ele>53.0097656</ele>
        <time>2012-03-18T09:14:48Z</time>
      </trkpt>
      <trkpt lat="47.33202" lon="-0.2852">
        <ele>54.932373</ele>
        <time>2012-03-18T09:14:58Z</time>
      </trkpt>
      <trkpt lat="47.33197" lon="-0.28531">
        <ele>55.4130859</ele>
        <time>2012-03-18T09:15:01Z</time>
      </trkpt>
      <trkpt lat="47.33178" lon="-0.28527">
        <ele>55.4130859</ele>
        <time>2012-03-18T09:15:07Z</time>
      </trkpt>
      <trkpt lat="47.33161" lon="-0.2852">
        <ele>55.4130859</ele>
        <time>2012-03-18T09:15:13Z</time>
      </trkpt>
      <trkpt lat="47.3315" lon="-0.28512">
        <ele>55.4130859</ele>
        <time>2012-03-18T09:15:18Z</time>
      </trkpt>
      <trkpt lat="47.33142" lon="-0.28506">
        <ele>55.4130859</ele>
        <time>2012-03-18T09:15:22Z</time>
      </trkpt>
      <trkpt lat="47.33133" lon="-0.285">
        <ele>56.8551025</ele>
        <time>2012-03-18T09:15:26Z</time>
      </trkpt>
      <trkpt lat="47.33124" lon="-0.28495">
        <ele>59.2584229</ele>
        <time>2012-03-18T09:15:30Z</time>
      </trkpt>
      <trkpt lat="47.33114" lon="-0.28492">
        <ele>61.6617432</ele>
        <time>2012-03-18T09:15:35Z</time>
      </trkpt>
      <trkpt lat="47.33109" lon="-0.28491">
        <ele>63.1036377</ele>
        <time>2012-03-18T09:15:38Z</time>
      </trkpt>
      <trkpt lat="47.33098" lon="-0.28493">
        <ele>68.871582</ele>
        <time>2012-03-18T09:15:44Z</time>
      </trkpt>
      <trkpt lat="47.33087" lon="-0.28502">
        <ele>70.7941895</ele>
        <time>2012-03-18T09:15:50Z</time>
      </trkpt>
      <trkpt lat="47.33076" lon="-0.28516">
        <ele>71.7554932</ele>
        <time>2012-03-18T09:15:58Z</time>
      </trkpt>
      <trkpt lat="47.33066" lon="-0.2853">
        <ele>72.7169189</ele>
        <time>2012-03-18T09:16:06Z</time>
      </trkpt>
      <trkpt lat="47.33059" lon="-0.28542">
        <ele>74.1588135</ele>
        <time>2012-03-18T09:16:13Z</time>
      </trkpt>
      <trkpt lat="47.33048" lon="-0.2855">
        <ele>75.6008301</ele>
        <time>2012-03-18T09:16:20Z</time>
      </trkpt>
      <trkpt lat="47.33039" lon="-0.28544">
        <ele>76.5621338</ele>
        <time>2012-03-18T09:16:26Z</time>
      </trkpt>
      <trkpt lat="47.33028" lon="-0.28528">
        <ele>77.5234375</ele>
        <time>2012-03-18T09:16:35Z</time>
      </trkpt>
      <trkpt lat="47.33019" lon="-0.28514">
        <ele>77.5234375</ele>
        <time>2012-03-18T09:16:43Z</time>
      </trkpt>
      <trkpt lat="47.3301" lon="-0.28503">
        <ele>77.0428467</ele>
        <time>2012-03-18T09:16:50Z</time>
      </trkpt>
      <trkpt lat="47.32995" lon="-0.28486">
        <ele>76.0814209</ele>
        <time>2012-03-18T09:16:59Z</time>
      </trkpt>
      <trkpt lat="47.32979" lon="-0.28469">
        <ele>75.6008301</ele>
        <time>2012-03-18T09:17:07Z</time>
      </trkpt>
      <trkpt lat="47.32961" lon="-0.2845">
        <ele>75.1202393</ele>
        <time>2012-03-18T09:17:16Z</time>
      </trkpt>
      <trkpt lat="47.32948" lon="-0.28439">
        <ele>75.1202393</ele>
        <time>2012-03-18T09:17:22Z</time>
      </trkpt>
      <trkpt lat="47.3293" lon="-0.28421">
        <ele>75.6008301</ele>
        <time>2012-03-18T09:17:31Z</time>
      </trkpt>
      <trkpt lat="47.32915" lon="-0.28407">
        <ele>75.1202393</ele>
        <time>2012-03-18T09:17:38Z</time>
      </trkpt>
      <trkpt lat="47.32902" lon="-0.28408">
        <ele>75.6008301</ele>
        <time>2012-03-18T09:17:43Z</time>
      </trkpt>
      <trkpt lat="47.32878" lon="-0.28408">
        <ele>76.5621338</ele>
        <time>2012-03-18T09:17:50Z</time>
      </trkpt>
      <trkpt lat="47.32845" lon="-0.28407">
        <ele>78.0040283</ele>
        <time>2012-03-18T09:18:00Z</time>
      </trkpt>
      <trkpt lat="47.32813" lon="-0.28415">
        <ele>79.4460449</ele>
        <time>2012-03-18T09:18:10Z</time>
      </trkpt>
      <trkpt lat="47.32797" lon="-0.2842">
        <ele>79.4460449</ele>
        <time>2012-03-18T09:18:16Z</time>
      </trkpt>
      <trkpt lat="47.32789" lon="-0.28424">
        <ele>79.4460449</ele>
        <time>2012-03-18T09:18:19Z</time>
      </trkpt>
      <trkpt lat="47.32786" lon="-0.28439">
        <ele>79.4460449</ele>
        <time>2012-03-18T09:18:23Z</time>
      </trkpt>
      <trkpt lat="47.32788" lon="-0.28447">
        <ele>79.4460449</ele>
        <time>2012-03-18T09:18:25Z</time>
      </trkpt>
      <trkpt lat="47.328" lon="-0.28496">
        <ele>81.3687744</ele>
        <time>2012-03-18T09:18:37Z</time>
      </trkpt>
      <trkpt lat="47.32807" lon="-0.28536">
        <ele>82.810791</ele>
        <time>2012-03-18T09:18:46Z</time>
      </trkpt>
      <trkpt lat="47.32817" lon="-0.28585">
        <ele>83.7719727</ele>
        <time>2012-03-18T09:18:57Z</time>
      </trkpt>
      <trkpt lat="47.32824" lon="-0.28624">
        <ele>83.7719727</ele>
        <time>2012-03-18T09:19:06Z</time>
      </trkpt>
      <trkpt lat="47.32829" lon="-0.28663">
        <ele>83.7719727</ele>
        <time>2012-03-18T09:19:14Z</time>
      </trkpt>
      <trkpt lat="47.32828" lon="-0.28715">
        <ele>82.810791</ele>
        <time>2012-03-18T09:19:24Z</time>
      </trkpt>
      <trkpt lat="47.32821" lon="-0.28755">
        <ele>83.2913818</ele>
        <time>2012-03-18T09:19:32Z</time>
      </trkpt>
      <trkpt lat="47.32807" lon="-0.288">
        <ele>83.7719727</ele>
        <time>2012-03-18T09:19:41Z</time>
      </trkpt>
      <trkpt lat="47.32795" lon="-0.28836">
        <ele>83.7719727</ele>
        <time>2012-03-18T09:19:48Z</time>
      </trkpt>
      <trkpt lat="47.32784" lon="-0.28877">
        <ele>84.2526855</ele>
        <time>2012-03-18T09:19:56Z</time>
      </trkpt>
      <trkpt lat="47.3277" lon="-0.28918">
        <ele>85.2139893</ele>
        <time>2012-03-18T09:20:04Z</time>
      </trkpt>
      <trkpt lat="47.32758" lon="-0.28939">
        <ele>86.175293</ele>
        <time>2012-03-18T09:20:09Z</time>
      </trkpt>
      <trkpt lat="47.32745" lon="-0.2896">
        <ele>86.175293</ele>
        <time>2012-03-18T09:20:14Z</time>
      </trkpt>
      <trkpt lat="47.3274" lon="-0.28994">
        <ele>86.6560059</ele>
        <time>2012-03-18T09:20:20Z</time>
      </trkpt>
      <trkpt lat="47.32737" lon="-0.29048">
        <ele>87.6171875</ele>
        <time>2012-03-18T09:20:30Z</time>
      </trkpt>
      <trkpt lat="47.32732" lon="-0.29089">
        <ele>87.6171875</ele>
        <time>2012-03-18T09:20:38Z</time>
      </trkpt>
      <trkpt lat="47.32725" lon="-0.29114">
        <ele>87.6171875</ele>
        <time>2012-03-18T09:20:43Z</time>
      </trkpt>
      <trkpt lat="47.32713" lon="-0.29148">
        <ele>88.0980225</ele>
        <time>2012-03-18T09:20:50Z</time>
      </trkpt>
      <trkpt lat="47.32694" lon="-0.29182">
        <ele>88.0980225</ele>
        <time>2012-03-18T09:20:58Z</time>
      </trkpt>
      <trkpt lat="47.32681" lon="-0.29207">
        <ele>90.0206299</ele>
        <time>2012-03-18T09:21:05Z</time>
      </trkpt>
      <trkpt lat="47.32676" lon="-0.29217">
        <ele>93.3851318</ele>
        <time>2012-03-18T09:21:09Z</time>
      </trkpt>
      <trkpt lat="47.32673" lon="-0.29222">
        <ele>94.8271484</ele>
        <time>2012-03-18T09:21:13Z</time>
      </trkpt>
      <trkpt lat="47.32665" lon="-0.29238">
        <ele>95.7884521</ele>
        <time>2012-03-18T09:21:20Z</time>
      </trkpt>
      <trkpt lat="47.32658" lon="-0.29253">
        <ele>96.2692871</ele>
        <time>2012-03-18T09:21:25Z</time>
      </trkpt>
      <trkpt lat="47.32647" lon="-0.29272">
        <ele>94.3465576</ele>
        <time>2012-03-18T09:21:31Z</time>
      </trkpt>
      <trkpt lat="47.32637" lon="-0.2929">
        <ele>92.4239502</ele>
        <time>2012-03-18T09:21:36Z</time>
      </trkpt>
      <trkpt lat="47.32625" lon="-0.29319">
        <ele>92.904541</ele>
        <time>2012-03-18T09:21:43Z</time>
      </trkpt>
      <trkpt lat="47.32617" lon="-0.29342">
        <ele>94.8271484</ele>
        <time>2012-03-18T09:21:48Z</time>
      </trkpt>
      <trkpt lat="47.32605" lon="-0.29366">
        <ele>93.8658447</ele>
        <time>2012-03-18T09:21:54Z</time>
      </trkpt>
      <trkpt lat="47.32594" lon="-0.29382">
        <ele>90.5013428</ele>
        <time>2012-03-18T09:21:59Z</time>
      </trkpt>
      <trkpt lat="47.3259" lon="-0.29391">
        <ele>90.5013428</ele>
        <time>2012-03-18T09:22:03Z</time>
      </trkpt>
      <trkpt lat="47.3258" lon="-0.29409">
        <ele>90.5013428</ele>
        <time>2012-03-18T09:22:10Z</time>
      </trkpt>
      <trkpt lat="47.32575" lon="-0.29422">
        <ele>90.0206299</ele>
        <time>2012-03-18T09:22:16Z</time>
      </trkpt>
      <trkpt lat="47.32567" lon="-0.29443">
        <ele>91.9432373</ele>
        <time>2012-03-18T09:22:24Z</time>
      </trkpt>
      <trkpt lat="47.3256" lon="-0.2946">
        <ele>91.9432373</ele>
        <time>2012-03-18T09:22:30Z</time>
      </trkpt>
      <trkpt lat="47.32556" lon="-0.29474">
        <ele>92.4239502</ele>
        <time>2012-03-18T09:22:35Z</time>
      </trkpt>
      <trkpt lat="47.32552" lon="-0.29488">
        <ele>92.904541</ele>
        <time>2012-03-18T09:22:40Z</time>
      </trkpt>
      <trkpt lat="47.32544" lon="-0.29509">
        <ele>97.2304688</ele>
        <time>2012-03-18T09:22:47Z</time>
      </trkpt>
      <trkpt lat="47.3254" lon="-0.29521">
        <ele>97.2304688</ele>
        <time>2012-03-18T09:22:52Z</time>
      </trkpt>
      <trkpt lat="47.32533" lon="-0.29536">
        <ele>96.7498779</ele>
        <time>2012-03-18T09:22:57Z</time>
      </trkpt>
      <trkpt lat="47.32527" lon="-0.29554">
        <ele>95.3077393</ele>
        <time>2012-03-18T09:23:03Z</time>
      </trkpt>
      <trkpt lat="47.32519" lon="-0.2957">
        <ele>93.3851318</ele>
        <time>2012-03-18T09:23:09Z</time>
      </trkpt>
      <trkpt lat="47.3251" lon="-0.29595">
        <ele>94.3465576</ele>
        <time>2012-03-18T09:23:16Z</time>
      </trkpt>
      <trkpt lat="47.32503" lon="-0.2961">
        <ele>95.3077393</ele>
        <time>2012-03-18T09:23:21Z</time>
      </trkpt>
      <trkpt lat="47.32495" lon="-0.29627">
        <ele>96.7498779</ele>
        <time>2012-03-18T09:23:26Z</time>
      </trkpt>
      <trkpt lat="47.32488" lon="-0.29647">
        <ele>99.1530762</ele>
        <time>2012-03-18T09:23:32Z</time>
      </trkpt>
      <trkpt lat="47.3248" lon="-0.2966">
        <ele>98.6724854</ele>
        <time>2012-03-18T09:23:37Z</time>
      </trkpt>
      <trkpt lat="47.32469" lon="-0.29679">
        <ele>94.3465576</ele>
        <time>2012-03-18T09:23:43Z</time>
      </trkpt>
      <trkpt lat="47.3245" lon="-0.297">
        <ele>93.8658447</ele>
        <time>2012-03-18T09:23:51Z</time>
      </trkpt>
      <trkpt lat="47.32432" lon="-0.29711">
        <ele>93.3851318</ele>
        <time>2012-03-18T09:23:57Z</time>
      </trkpt>
      <trkpt lat="47.32417" lon="-0.29721">
        <ele>93.3851318</ele>
        <time>2012-03-18T09:24:02Z</time>
      </trkpt>
      <trkpt lat="47.32401" lon="-0.29728">
        <ele>94.3465576</ele>
        <time>2012-03-18T09:24:08Z</time>
      </trkpt>
      <trkpt lat="47.32389" lon="-0.29731">
        <ele>92.4239502</ele>
        <time>2012-03-18T09:24:13Z</time>
      </trkpt>
      <trkpt lat="47.32375" lon="-0.29733">
        <ele>90.9819336</ele>
        <time>2012-03-18T09:24:18Z</time>
      </trkpt>
      <trkpt lat="47.32361" lon="-0.29735">
        <ele>90.0206299</ele>
        <time>2012-03-18T09:24:22Z</time>
      </trkpt>
      <trkpt lat="47.32338" lon="-0.29751">
        <ele>90.0206299</ele>
        <time>2012-03-18T09:24:30Z</time>
      </trkpt>
      <trkpt lat="47.32323" lon="-0.29767">
        <ele>91.4625244</ele>
        <time>2012-03-18T09:24:36Z</time>
      </trkpt>
      <trkpt lat="47.32312" lon="-0.29782">
        <ele>91.4625244</ele>
        <time>2012-03-18T09:24:41Z</time>
      </trkpt>
      <trkpt lat="47.323" lon="-0.29803">
        <ele>91.4625244</ele>
        <time>2012-03-18T09:24:47Z</time>
      </trkpt>
      <trkpt lat="47.32296" lon="-0.2982">
        <ele>90.9819336</ele>
        <time>2012-03-18T09:24:51Z</time>
      </trkpt>
      <trkpt lat="47.32291" lon="-0.29847">
        <ele>90.0206299</ele>
        <time>2012-03-18T09:24:57Z</time>
      </trkpt>
      <trkpt lat="47.32283" lon="-0.29873">
        <ele>90.0206299</ele>
        <time>2012-03-18T09:25:03Z</time>
      </trkpt>
      <trkpt lat="47.32274" lon="-0.29898">
        <ele>91.9432373</ele>
        <time>2012-03-18T09:25:09Z</time>
      </trkpt>
      <trkpt lat="47.32272" lon="-0.29919">
        <ele>94.8271484</ele>
        <time>2012-03-18T09:25:15Z</time>
      </trkpt>
      <trkpt lat="47.32271" lon="-0.29931">
        <ele>94.8271484</ele>
        <time>2012-03-18T09:25:19Z</time>
      </trkpt>
      <trkpt lat="47.32265" lon="-0.29949">
        <ele>93.3851318</ele>
        <time>2012-03-18T09:25:25Z</time>
      </trkpt>
      <trkpt lat="47.32258" lon="-0.29967">
        <ele>88.0980225</ele>
        <time>2012-03-18T09:25:31Z</time>
      </trkpt>
      <trkpt lat="47.32251" lon="-0.29983">
        <ele>84.7333984</ele>
        <time>2012-03-18T09:25:36Z</time>
      </trkpt>
      <trkpt lat="47.32248" lon="-0.29991">
        <ele>84.2526855</ele>
        <time>2012-03-18T09:25:38Z</time>
      </trkpt>
      <trkpt lat="47.32241" lon="-0.30015">
        <ele>87.6171875</ele>
        <time>2012-03-18T09:25:44Z</time>
      </trkpt>
      <trkpt lat="47.32233" lon="-0.30039">
        <ele>87.6171875</ele>
        <time>2012-03-18T09:25:50Z</time>
      </trkpt>
      <trkpt lat="47.32231" lon="-0.30048">
        <ele>89.0593262</ele>
        <time>2012-03-18T09:25:52Z</time>
      </trkpt>
      <trkpt lat="47.32228" lon="-0.30071">
        <ele>91.9432373</ele>
        <time>2012-03-18T09:25:58Z</time>
      </trkpt>
      <trkpt lat="47.32226" lon="-0.30083">
        <ele>90.5013428</ele>
        <time>2012-03-18T09:26:02Z</time>
      </trkpt>
      <trkpt lat="47.32225" lon="-0.30086">
        <ele>90.9819336</ele>
        <time>2012-03-18T09:26:03Z</time>
      </trkpt>
      <trkpt lat="47.32229" lon="-0.3011">
        <ele>93.3851318</ele>
        <time>2012-03-18T09:26:10Z</time>
      </trkpt>
      <trkpt lat="47.32233" lon="-0.30137">
        <ele>86.175293</ele>
        <time>2012-03-18T09:26:16Z</time>
      </trkpt>
      <trkpt lat="47.32237" lon="-0.30169">
        <ele>85.6945801</ele>
        <time>2012-03-18T09:26:20Z</time>
      </trkpt>
      <trkpt lat="47.32237" lon="-0.30179">
        <ele>85.6945801</ele>
        <time>2012-03-18T09:26:21Z</time>
      </trkpt>
      <trkpt lat="47.32237" lon="-0.30195">
        <ele>85.2139893</ele>
        <time>2012-03-18T09:26:23Z</time>
      </trkpt>
      <trkpt lat="47.3223" lon="-0.30222">
        <ele>83.2913818</ele>
        <time>2012-03-18T09:26:27Z</time>
      </trkpt>
      <trkpt lat="47.32227" lon="-0.30233">
        <ele>84.7333984</ele>
        <time>2012-03-18T09:26:29Z</time>
      </trkpt>
      <trkpt lat="47.32223" lon="-0.30252">
        <ele>82.810791</ele>
        <time>2012-03-18T09:26:33Z</time>
      </trkpt>
      <trkpt lat="47.32223" lon="-0.30271">
        <ele>81.3687744</ele>
        <time>2012-03-18T09:26:37Z</time>
      </trkpt>
      <trkpt lat="47.32219" lon="-0.30304">
        <ele>82.3300781</ele>
        <time>2012-03-18T09:26:44Z</time>
      </trkpt>
      <trkpt lat="47.32213" lon="-0.30332">
        <ele>85.6945801</ele>
        <time>2012-03-18T09:26:50Z</time>
      </trkpt>
      <trkpt lat="47.32209" lon="-0.30354">
        <ele>87.6171875</ele>
        <time>2012-03-18T09:26:55Z</time>
      </trkpt>
      <trkpt lat="47.32211" lon="-0.30376">
        <ele>89.0593262</ele>
        <time>2012-03-18T09:27:00Z</time>
      </trkpt>
      <trkpt lat="47.32213" lon="-0.30398">
        <ele>88.5787354</ele>
        <time>2012-03-18T09:27:05Z</time>
      </trkpt>
      <trkpt lat="47.32215" lon="-0.30429">
        <ele>89.539917</ele>
        <time>2012-03-18T09:27:11Z</time>
      </trkpt>
      <trkpt lat="47.32217" lon="-0.30454">
        <ele>89.0593262</ele>
        <time>2012-03-18T09:27:16Z</time>
      </trkpt>
      <trkpt lat="47.32217" lon="-0.30486">
        <ele>88.0980225</ele>
        <time>2012-03-18T09:27:22Z</time>
      </trkpt>
      <trkpt lat="47.32215" lon="-0.3052">
        <ele>88.0980225</ele>
        <time>2012-03-18T09:27:29Z</time>
      </trkpt>
      <trkpt lat="47.32211" lon="-0.30545">
        <ele>89.0593262</ele>
        <time>2012-03-18T09:27:34Z</time>
      </trkpt>
      <trkpt lat="47.32203" lon="-0.30569">
        <ele>87.1365967</ele>
        <time>2012-03-18T09:27:40Z</time>
      </trkpt>
      <trkpt lat="47.3219" lon="-0.30589">
        <ele>89.539917</ele>
        <time>2012-03-18T09:27:45Z</time>
      </trkpt>
      <trkpt lat="47.32183" lon="-0.3061">
        <ele>89.0593262</ele>
        <time>2012-03-18T09:27:50Z</time>
      </trkpt>
      <trkpt lat="47.32176" lon="-0.30646">
        <ele>87.1365967</ele>
        <time>2012-03-18T09:27:58Z</time>
      </trkpt>
      <trkpt lat="47.32172" lon="-0.30677">
        <ele>87.1365967</ele>
        <time>2012-03-18T09:28:06Z</time>
      </trkpt>
      <trkpt lat="47.32168" lon="-0.30693">
        <ele>86.175293</ele>
        <time>2012-03-18T09:28:11Z</time>
      </trkpt>
      <trkpt lat="47.32162" lon="-0.30725">
        <ele>85.2139893</ele>
        <time>2012-03-18T09:28:19Z</time>
      </trkpt>
      <trkpt lat="47.32163" lon="-0.30755">
        <ele>84.7333984</ele>
        <time>2012-03-18T09:28:26Z</time>
      </trkpt>
      <trkpt lat="47.32175" lon="-0.30788">
        <ele>83.2913818</ele>
        <time>2012-03-18T09:28:34Z</time>
      </trkpt>
      <trkpt lat="47.32184" lon="-0.30817">
        <ele>81.8493652</ele>
        <time>2012-03-18T09:28:40Z</time>
      </trkpt>
      <trkpt lat="47.32185" lon="-0.30847">
        <ele>80.4074707</ele>
        <time>2012-03-18T09:28:45Z</time>
      </trkpt>
      <trkpt lat="47.32183" lon="-0.30889">
        <ele>79.4460449</ele>
        <time>2012-03-18T09:28:51Z</time>
      </trkpt>
      <trkpt lat="47.32183" lon="-0.30898">
        <ele>78.9654541</ele>
        <time>2012-03-18T09:28:52Z</time>
      </trkpt>
      <trkpt lat="47.32189" lon="-0.3094">
        <ele>76.5621338</ele>
        <time>2012-03-18T09:28:57Z</time>
      </trkpt>
      <trkpt lat="47.32188" lon="-0.30963">
        <ele>75.1202393</ele>
        <time>2012-03-18T09:29:00Z</time>
      </trkpt>
      <trkpt lat="47.3219" lon="-0.30983">
        <ele>73.1976318</ele>
        <time>2012-03-18T09:29:03Z</time>
      </trkpt>
      <trkpt lat="47.32193" lon="-0.30997">
        <ele>77.0428467</ele>
        <time>2012-03-18T09:29:05Z</time>
      </trkpt>
      <trkpt lat="47.32201" lon="-0.31028">
        <ele>79.9266357</ele>
        <time>2012-03-18T09:29:10Z</time>
      </trkpt>
      <trkpt lat="47.32205" lon="-0.31042">
        <ele>80.8881836</ele>
        <time>2012-03-18T09:29:13Z</time>
      </trkpt>
      <trkpt lat="47.3221" lon="-0.3106">
        <ele>81.3687744</ele>
        <time>2012-03-18T09:29:17Z</time>
      </trkpt>
      <trkpt lat="47.32216" lon="-0.31079">
        <ele>83.2913818</ele>
        <time>2012-03-18T09:29:23Z</time>
      </trkpt>
      <trkpt lat="47.3222" lon="-0.31101">
        <ele>82.810791</ele>
        <time>2012-03-18T09:29:28Z</time>
      </trkpt>
      <trkpt lat="47.32228" lon="-0.31138">
        <ele>81.8493652</ele>
        <time>2012-03-18T09:29:36Z</time>
      </trkpt>
      <trkpt lat="47.32237" lon="-0.31162">
        <ele>81.8493652</ele>
        <time>2012-03-18T09:29:42Z</time>
      </trkpt>
      <trkpt lat="47.32248" lon="-0.31189">
        <ele>81.8493652</ele>
        <time>2012-03-18T09:29:49Z</time>
      </trkpt>
      <trkpt lat="47.32264" lon="-0.31226">
        <ele>84.7333984</ele>
        <time>2012-03-18T09:29:58Z</time>
      </trkpt>
      <trkpt lat="47.32281" lon="-0.31256">
        <ele>85.6945801</ele>
        <time>2012-03-18T09:30:06Z</time>
      </trkpt>
      <trkpt lat="47.32299" lon="-0.31281">
        <ele>86.6560059</ele>
        <time>2012-03-18T09:30:14Z</time>
      </trkpt>
      <trkpt lat="47.32319" lon="-0.31318">
        <ele>87.1365967</ele>
        <time>2012-03-18T09:30:24Z</time>
      </trkpt>
      <trkpt lat="47.32335" lon="-0.31351">
        <ele>87.6171875</ele>
        <time>2012-03-18T09:30:33Z</time>
      </trkpt>
      <trkpt lat="47.32338" lon="-0.31363">
        <ele>88.0980225</ele>
        <time>2012-03-18T09:30:37Z</time>
      </trkpt>
      <trkpt lat="47.32341" lon="-0.31371">
        <ele>88.5787354</ele>
        <time>2012-03-18T09:30:44Z</time>
      </trkpt>
      <trkpt lat="47.3234" lon="-0.31372">
        <ele>89.539917</ele>
        <time>2012-03-18T09:30:50Z</time>
      </trkpt>
      <trkpt lat="47.32339" lon="-0.31371">
        <ele>89.0593262</ele>
        <time>2012-03-18T09:31:01Z</time>
      </trkpt>
      <trkpt lat="47.32341" lon="-0.31373">
        <ele>89.539917</ele>
        <time>2012-03-18T09:31:05Z</time>
      </trkpt>
      <trkpt lat="47.32345" lon="-0.31377">
        <ele>89.0593262</ele>
        <time>2012-03-18T09:31:11Z</time>
      </trkpt>
      <trkpt lat="47.32345" lon="-0.31377">
        <ele>89.539917</ele>
        <time>2012-03-18T09:31:15Z</time>
      </trkpt>
      <trkpt lat="47.32344" lon="-0.31378">
        <ele>90.5013428</ele>
        <time>2012-03-18T09:31:22Z</time>
      </trkpt>
      <trkpt lat="47.32344" lon="-0.31379">
        <ele>93.3851318</ele>
        <time>2012-03-18T09:31:44Z</time>
      </trkpt>
      <trkpt lat="47.32344" lon="-0.31379">
        <ele>92.904541</ele>
        <time>2012-03-18T09:31:52Z</time>
      </trkpt>
      <trkpt lat="47.32347" lon="-0.31382">
        <ele>91.4625244</ele>
        <time>2012-03-18T09:31:57Z</time>
      </trkpt>
      <trkpt lat="47.32349" lon="-0.31385">
        <ele>90.9819336</ele>
        <time>2012-03-18T09:32:02Z</time>
      </trkpt>
      <trkpt lat="47.32349" lon="-0.31386">
        <ele>91.4625244</ele>
        <time>2012-03-18T09:32:06Z</time>
      </trkpt>
      <trkpt lat="47.32349" lon="-0.31387">
        <ele>91.9432373</ele>
        <time>2012-03-18T09:32:17Z</time>
      </trkpt>
      <trkpt lat="47.32352" lon="-0.31391">
        <ele>91.9432373</ele>
        <time>2012-03-18T09:32:29Z</time>
      </trkpt>
      <trkpt lat="47.32362" lon="-0.31403">
        <ele>90.9819336</ele>
        <time>2012-03-18T09:32:35Z</time>
      </trkpt>
      <trkpt lat="47.32382" lon="-0.31431">
        <ele>90.5013428</ele>
        <time>2012-03-18T09:32:45Z</time>
      </trkpt>
      <trkpt lat="47.32398" lon="-0.31456">
        <ele>90.5013428</ele>
        <time>2012-03-18T09:32:53Z</time>
      </trkpt>
      <trkpt lat="47.32413" lon="-0.31488">
        <ele>90.0206299</ele>
        <time>2012-03-18T09:33:01Z</time>
      </trkpt>
      <trkpt lat="47.32428" lon="-0.31521">
        <ele>89.539917</ele>
        <time>2012-03-18T09:33:09Z</time>
      </trkpt>
      <trkpt lat="47.3245" lon="-0.31564">
        <ele>89.539917</ele>
        <time>2012-03-18T09:33:20Z</time>
      </trkpt>
      <trkpt lat="47.32464" lon="-0.3159">
        <ele>89.539917</ele>
        <time>2012-03-18T09:33:27Z</time>
      </trkpt>
      <trkpt lat="47.32468" lon="-0.31599">
        <ele>89.539917</ele>
        <time>2012-03-18T09:33:30Z</time>
      </trkpt>
      <trkpt lat="47.32461" lon="-0.31613">
        <ele>88.5787354</ele>
        <time>2012-03-18T09:33:35Z</time>
      </trkpt>
      <trkpt lat="47.32443" lon="-0.31623">
        <ele>90.0206299</ele>
        <time>2012-03-18T09:33:40Z</time>
      </trkpt>
      <trkpt lat="47.32416" lon="-0.31634">
        <ele>90.9819336</ele>
        <time>2012-03-18T09:33:47Z</time>
      </trkpt>
      <trkpt lat="47.32389" lon="-0.31644">
        <ele>92.4239502</ele>
        <time>2012-03-18T09:33:54Z</time>
      </trkpt>
      <trkpt lat="47.32368" lon="-0.31653">
        <ele>93.8658447</ele>
        <time>2012-03-18T09:34:01Z</time>
      </trkpt>
      <trkpt lat="47.32352" lon="-0.31666">
        <ele>93.8658447</ele>
        <time>2012-03-18T09:34:07Z</time>
      </trkpt>
      <trkpt lat="47.32342" lon="-0.31678">
        <ele>92.904541</ele>
        <time>2012-03-18T09:34:12Z</time>
      </trkpt>
      <trkpt lat="47.32315" lon="-0.31688">
        <ele>91.9432373</ele>
        <time>2012-03-18T09:34:22Z</time>
      </trkpt>
      <trkpt lat="47.32288" lon="-0.31697">
        <ele>91.4625244</ele>
        <time>2012-03-18T09:34:31Z</time>
      </trkpt>
      <trkpt lat="47.32262" lon="-0.31707">
        <ele>92.4239502</ele>
        <time>2012-03-18T09:34:40Z</time>
      </trkpt>
      <trkpt lat="47.32239" lon="-0.31716">
        <ele>92.4239502</ele>
        <time>2012-03-18T09:34:48Z</time>
      </trkpt>
      <trkpt lat="47.32209" lon="-0.31726">
        <ele>91.9432373</ele>
        <time>2012-03-18T09:34:58Z</time>
      </trkpt>
      <trkpt lat="47.32183" lon="-0.31736">
        <ele>91.9432373</ele>
        <time>2012-03-18T09:35:07Z</time>
      </trkpt>
      <trkpt lat="47.32153" lon="-0.31747">
        <ele>92.4239502</ele>
        <time>2012-03-18T09:35:18Z</time>
      </trkpt>
      <trkpt lat="47.32128" lon="-0.31757">
        <ele>92.904541</ele>
        <time>2012-03-18T09:35:27Z</time>
      </trkpt>
      <trkpt lat="47.32115" lon="-0.31772">
        <ele>92.904541</ele>
        <time>2012-03-18T09:35:33Z</time>
      </trkpt>
      <trkpt lat="47.32112" lon="-0.31778">
        <ele>92.904541</ele>
        <time>2012-03-18T09:35:35Z</time>
      </trkpt>
      <trkpt lat="47.32106" lon="-0.31775">
        <ele>91.9432373</ele>
        <time>2012-03-18T09:35:39Z</time>
      </trkpt>
      <trkpt lat="47.32094" lon="-0.31742">
        <ele>90.5013428</ele>
        <time>2012-03-18T09:35:47Z</time>
      </trkpt>
      <trkpt lat="47.32087" lon="-0.31725">
        <ele>90.0206299</ele>
        <time>2012-03-18T09:35:51Z</time>
      </trkpt>
      <trkpt lat="47.32076" lon="-0.31728">
        <ele>90.0206299</ele>
        <time>2012-03-18T09:35:55Z</time>
      </trkpt>
      <trkpt lat="47.32075" lon="-0.31733">
        <ele>89.539917</ele>
        <time>2012-03-18T09:35:56Z</time>
      </trkpt>
      <trkpt lat="47.3207" lon="-0.31762">
        <ele>88.0980225</ele>
        <time>2012-03-18T09:36:02Z</time>
      </trkpt>
      <trkpt lat="47.32064" lon="-0.31791">
        <ele>87.1365967</ele>
        <time>2012-03-18T09:36:08Z</time>
      </trkpt>
      <trkpt lat="47.32054" lon="-0.31831">
        <ele>87.1365967</ele>
        <time>2012-03-18T09:36:16Z</time>
      </trkpt>
      <trkpt lat="47.32047" lon="-0.3186">
        <ele>85.6945801</ele>
        <time>2012-03-18T09:36:22Z</time>
      </trkpt>
      <trkpt lat="47.32041" lon="-0.31883">
        <ele>84.7333984</ele>
        <time>2012-03-18T09:36:27Z</time>
      </trkpt>
      <trkpt lat="47.32026" lon="-0.31933">
        <ele>83.2913818</ele>
        <time>2012-03-18T09:36:37Z</time>
      </trkpt>
      <trkpt lat="47.32016" lon="-0.31975">
        <ele>87.6171875</ele>
        <time>2012-03-18T09:36:46Z</time>
      </trkpt>
      <trkpt lat="47.32009" lon="-0.32007">
        <ele>90.5013428</ele>
        <time>2012-03-18T09:36:53Z</time>
      </trkpt>
      <trkpt lat="47.31999" lon="-0.32054">
        <ele>91.4625244</ele>
        <time>2012-03-18T09:37:03Z</time>
      </trkpt>
      <trkpt lat="47.31992" lon="-0.32084">
        <ele>92.4239502</ele>
        <time>2012-03-18T09:37:10Z</time>
      </trkpt>
      <trkpt lat="47.3199" lon="-0.32108">
        <ele>91.9432373</ele>
        <time>2012-03-18T09:37:16Z</time>
      </trkpt>
      <trkpt lat="47.31997" lon="-0.32133">
        <ele>90.0206299</ele>
        <time>2012-03-18T09:37:22Z</time>
      </trkpt>
      <trkpt lat="47.3201" lon="-0.32173">
        <ele>89.0593262</ele>
        <time>2012-03-18T09:37:31Z</time>
      </trkpt>
      <trkpt lat="47.32024" lon="-0.32215">
        <ele>90.5013428</ele>
        <time>2012-03-18T09:37:40Z</time>
      </trkpt>
      <trkpt lat="47.32037" lon="-0.3225">
        <ele>90.0206299</ele>
        <time>2012-03-18T09:37:47Z</time>
      </trkpt>
      <trkpt lat="47.32044" lon="-0.3227">
        <ele>90.5013428</ele>
        <time>2012-03-18T09:37:51Z</time>
      </trkpt>
      <trkpt lat="47.32054" lon="-0.32294">
        <ele>91.4625244</ele>
        <time>2012-03-18T09:37:56Z</time>
      </trkpt>
      <trkpt lat="47.3207" lon="-0.32327">
        <ele>93.3851318</ele>
        <time>2012-03-18T09:38:04Z</time>
      </trkpt>
      <trkpt lat="47.32088" lon="-0.32364">
        <ele>93.3851318</ele>
        <time>2012-03-18T09:38:13Z</time>
      </trkpt>
      <trkpt lat="47.32103" lon="-0.32405">
        <ele>92.904541</ele>
        <time>2012-03-18T09:38:22Z</time>
      </trkpt>
      <trkpt lat="47.32115" lon="-0.3244">
        <ele>91.9432373</ele>
        <time>2012-03-18T09:38:30Z</time>
      </trkpt>
      <trkpt lat="47.32133" lon="-0.32442">
        <ele>91.4625244</ele>
        <time>2012-03-18T09:38:35Z</time>
      </trkpt>
      <trkpt lat="47.32162" lon="-0.32443">
        <ele>91.4625244</ele>
        <time>2012-03-18T09:38:42Z</time>
      </trkpt>
      <trkpt lat="47.32199" lon="-0.32439">
        <ele>91.4625244</ele>
        <time>2012-03-18T09:38:50Z</time>
      </trkpt>
      <trkpt lat="47.32248" lon="-0.32436">
        <ele>91.4625244</ele>
        <time>2012-03-18T09:39:00Z</time>
      </trkpt>
      <trkpt lat="47.32301" lon="-0.32431">
        <ele>91.9432373</ele>
        <time>2012-03-18T09:39:11Z</time>
      </trkpt>
      <trkpt lat="47.32335" lon="-0.32429">
        <ele>91.9432373</ele>
        <time>2012-03-18T09:39:19Z</time>
      </trkpt>
      <trkpt lat="47.3235" lon="-0.32428">
        <ele>91.9432373</ele>
        <time>2012-03-18T09:39:23Z</time>
      </trkpt>
      <trkpt lat="47.32363" lon="-0.32438">
        <ele>91.4625244</ele>
        <time>2012-03-18T09:39:27Z</time>
      </trkpt>
      <trkpt lat="47.32386" lon="-0.32496">
        <ele>89.539917</ele>
        <time>2012-03-18T09:39:37Z</time>
      </trkpt>
      <trkpt lat="47.324" lon="-0.32539">
        <ele>88.5787354</ele>
        <time>2012-03-18T09:39:44Z</time>
      </trkpt>
      <trkpt lat="47.32419" lon="-0.32601">
        <ele>88.0980225</ele>
        <time>2012-03-18T09:39:54Z</time>
      </trkpt>
      <trkpt lat="47.32438" lon="-0.32663">
        <ele>87.6171875</ele>
        <time>2012-03-18T09:40:04Z</time>
      </trkpt>
      <trkpt lat="47.32454" lon="-0.32717">
        <ele>87.6171875</ele>
        <time>2012-03-18T09:40:13Z</time>
      </trkpt>
      <trkpt lat="47.32475" lon="-0.32781">
        <ele>87.1365967</ele>
        <time>2012-03-18T09:40:23Z</time>
      </trkpt>
      <trkpt lat="47.3249" lon="-0.32846">
        <ele>86.6560059</ele>
        <time>2012-03-18T09:40:32Z</time>
      </trkpt>
      <trkpt lat="47.32498" lon="-0.32905">
        <ele>86.6560059</ele>
        <time>2012-03-18T09:40:39Z</time>
      </trkpt>
      <trkpt lat="47.32506" lon="-0.32987">
        <ele>85.2139893</ele>
        <time>2012-03-18T09:40:48Z</time>
      </trkpt>
      <trkpt lat="47.32515" lon="-0.33057">
        <ele>84.7333984</ele>
        <time>2012-03-18T09:40:55Z</time>
      </trkpt>
      <trkpt lat="47.32526" lon="-0.33156">
        <ele>84.2526855</ele>
        <time>2012-03-18T09:41:04Z</time>
      </trkpt>
      <trkpt lat="47.32536" lon="-0.33265">
        <ele>84.2526855</ele>
        <time>2012-03-18T09:41:14Z</time>
      </trkpt>
      <trkpt lat="47.32536" lon="-0.33336">
        <ele>83.2913818</ele>
        <time>2012-03-18T09:41:21Z</time>
      </trkpt>
      <trkpt lat="47.32529" lon="-0.33394">
        <ele>81.3687744</ele>
        <time>2012-03-18T09:41:26Z</time>
      </trkpt>
      <trkpt lat="47.32528" lon="-0.33419">
        <ele>80.8881836</ele>
        <time>2012-03-18T09:41:28Z</time>
      </trkpt>
      <trkpt lat="47.32533" lon="-0.33503">
        <ele>73.1976318</ele>
        <time>2012-03-18T09:41:34Z</time>
      </trkpt>
      <trkpt lat="47.32538" lon="-0.33529">
        <ele>67.4296875</ele>
        <time>2012-03-18T09:41:36Z</time>
      </trkpt>
      <trkpt lat="47.32541" lon="-0.33593">
        <ele>57.3358154</ele>
        <time>2012-03-18T09:41:40Z</time>
      </trkpt>
      <trkpt lat="47.3254" lon="-0.33637">
        <ele>56.8551025</ele>
        <time>2012-03-18T09:41:43Z</time>
      </trkpt>
      <trkpt lat="47.32538" lon="-0.33655">
        <ele>53.4904785</ele>
        <time>2012-03-18T09:41:45Z</time>
      </trkpt>
      <trkpt lat="47.32537" lon="-0.33692">
        <ele>57.3358154</ele>
        <time>2012-03-18T09:41:49Z</time>
      </trkpt>
      <trkpt lat="47.32534" lon="-0.33762">
        <ele>58.77771</ele>
        <time>2012-03-18T09:41:55Z</time>
      </trkpt>
      <trkpt lat="47.32543" lon="-0.33826">
        <ele>58.2971191</ele>
        <time>2012-03-18T09:42:00Z</time>
      </trkpt>
      <trkpt lat="47.32544" lon="-0.3388">
        <ele>56.3745117</ele>
        <time>2012-03-18T09:42:04Z</time>
      </trkpt>
      <trkpt lat="47.32539" lon="-0.33962">
        <ele>55.8937988</ele>
        <time>2012-03-18T09:42:10Z</time>
      </trkpt>
      <trkpt lat="47.32542" lon="-0.34041">
        <ele>55.8937988</ele>
        <time>2012-03-18T09:42:16Z</time>
      </trkpt>
      <trkpt lat="47.32551" lon="-0.34131">
        <ele>55.8937988</ele>
        <time>2012-03-18T09:42:23Z</time>
      </trkpt>
      <trkpt lat="47.32562" lon="-0.34209">
        <ele>56.3745117</ele>
        <time>2012-03-18T09:42:29Z</time>
      </trkpt>
      <trkpt lat="47.32584" lon="-0.3432">
        <ele>56.3745117</ele>
        <time>2012-03-18T09:42:38Z</time>
      </trkpt>
      <trkpt lat="47.32605" lon="-0.3441">
        <ele>56.3745117</ele>
        <time>2012-03-18T09:42:46Z</time>
      </trkpt>
      <trkpt lat="47.32614" lon="-0.34429">
        <ele>56.3745117</ele>
        <time>2012-03-18T09:42:48Z</time>
      </trkpt>
      <trkpt lat="47.32638" lon="-0.3447">
        <ele>56.3745117</ele>
        <time>2012-03-18T09:42:53Z</time>
      </trkpt>
      <trkpt lat="47.32654" lon="-0.34521">
        <ele>55.8937988</ele>
        <time>2012-03-18T09:42:59Z</time>
      </trkpt>
      <trkpt lat="47.32658" lon="-0.34546">
        <ele>54.932373</ele>
        <time>2012-03-18T09:43:02Z</time>
      </trkpt>
      <trkpt lat="47.32661" lon="-0.34589">
        <ele>53.4904785</ele>
        <time>2012-03-18T09:43:07Z</time>
      </trkpt>
      <trkpt lat="47.32663" lon="-0.34613">
        <ele>53.4904785</ele>
        <time>2012-03-18T09:43:10Z</time>
      </trkpt>
      <trkpt lat="47.32666" lon="-0.34666">
        <ele>53.0097656</ele>
        <time>2012-03-18T09:43:17Z</time>
      </trkpt>
      <trkpt lat="47.32665" lon="-0.3469">
        <ele>52.5291748</ele>
        <time>2012-03-18T09:43:21Z</time>
      </trkpt>
      <trkpt lat="47.32664" lon="-0.34695">
        <ele>52.5291748</ele>
        <time>2012-03-18T09:43:22Z</time>
      </trkpt>
      <trkpt lat="47.32649" lon="-0.34724">
        <ele>53.0097656</ele>
        <time>2012-03-18T09:43:29Z</time>
      </trkpt>
      <trkpt lat="47.32648" lon="-0.34739">
        <ele>53.0097656</ele>
        <time>2012-03-18T09:43:32Z</time>
      </trkpt>
      <trkpt lat="47.32652" lon="-0.34759">
        <ele>52.5291748</ele>
        <time>2012-03-18T09:43:35Z</time>
      </trkpt>
      <trkpt lat="47.32654" lon="-0.34779">
        <ele>52.048584</ele>
        <time>2012-03-18T09:43:38Z</time>
      </trkpt>
      <trkpt lat="47.32657" lon="-0.3479">
        <ele>52.048584</ele>
        <time>2012-03-18T09:43:42Z</time>
      </trkpt>
      <trkpt lat="47.32659" lon="-0.34791">
        <ele>52.048584</ele>
        <time>2012-03-18T09:43:43Z</time>
      </trkpt>
      <trkpt lat="47.32662" lon="-0.34786">
        <ele>51.5678711</ele>
        <time>2012-03-18T09:43:46Z</time>
      </trkpt>
      <trkpt lat="47.32675" lon="-0.34781">
        <ele>51.5678711</ele>
        <time>2012-03-18T09:43:51Z</time>
      </trkpt>
      <trkpt lat="47.32696" lon="-0.34777">
        <ele>51.0871582</ele>
        <time>2012-03-18T09:43:55Z</time>
      </trkpt>
      <trkpt lat="47.32704" lon="-0.3478">
        <ele>51.5678711</ele>
        <time>2012-03-18T09:43:58Z</time>
      </trkpt>
      <trkpt lat="47.32706" lon="-0.34785">
        <ele>51.5678711</ele>
        <time>2012-03-18T09:44:01Z</time>
      </trkpt>
      <trkpt lat="47.32706" lon="-0.34786">
        <ele>51.5678711</ele>
        <time>2012-03-18T09:44:02Z</time>
      </trkpt>
      <trkpt lat="47.32711" lon="-0.34779">
        <ele>52.048584</ele>
        <time>2012-03-18T09:44:06Z</time>
      </trkpt>
      <trkpt lat="47.32717" lon="-0.34772">
        <ele>52.048584</ele>
        <time>2012-03-18T09:44:09Z</time>
      </trkpt>
      <trkpt lat="47.32724" lon="-0.34775">
        <ele>52.048584</ele>
        <time>2012-03-18T09:44:13Z</time>
      </trkpt>
      <trkpt lat="47.32723" lon="-0.34783">
        <ele>51.0871582</ele>
        <time>2012-03-18T09:44:20Z</time>
      </trkpt>
      <trkpt lat="47.32724" lon="-0.34786">
        <ele>50.6065674</ele>
        <time>2012-03-18T09:44:23Z</time>
      </trkpt>
      <trkpt lat="47.32725" lon="-0.34785">
        <ele>50.6065674</ele>
        <time>2012-03-18T09:44:28Z</time>
      </trkpt>
      <trkpt lat="47.32725" lon="-0.34787">
        <ele>51.5678711</ele>
        <time>2012-03-18T09:44:32Z</time>
      </trkpt>
      <trkpt lat="47.32726" lon="-0.34787">
        <ele>52.5291748</ele>
        <time>2012-03-18T09:44:39Z</time>
      </trkpt>
      <trkpt lat="47.32725" lon="-0.34787">
        <ele>53.4904785</ele>
        <time>2012-03-18T09:44:44Z</time>
      </trkpt>
      <trkpt lat="47.32723" lon="-0.34786">
        <ele>53.4904785</ele>
        <time>2012-03-18T09:44:50Z</time>
      </trkpt>
      <trkpt lat="47.32723" lon="-0.34786">
        <ele>53.9711914</ele>
        <time>2012-03-18T09:44:57Z</time>
      </trkpt>
      <trkpt lat="47.32724" lon="-0.34786">
        <ele>53.9711914</ele>
        <time>2012-03-18T09:45:03Z</time>
      </trkpt>
      <trkpt lat="47.32724" lon="-0.34787">
        <ele>52.5291748</ele>
        <time>2012-03-18T09:45:14Z</time>
      </trkpt>
      <trkpt lat="47.32724" lon="-0.34786">
        <ele>53.0097656</ele>
        <time>2012-03-18T09:45:30Z</time>
      </trkpt>
      <trkpt lat="47.32724" lon="-0.34785">
        <ele>53.4904785</ele>
        <time>2012-03-18T09:45:45Z</time>
      </trkpt>
      <trkpt lat="47.32724" lon="-0.34785">
        <ele>55.8937988</ele>
        <time>2012-03-18T09:45:58Z</time>
      </trkpt>
      <trkpt lat="47.32725" lon="-0.34786">
        <ele>54.4517822</ele>
        <time>2012-03-18T09:46:18Z</time>
      </trkpt>
      <trkpt lat="47.32725" lon="-0.34786">
        <ele>55.4130859</ele>
        <time>2012-03-18T09:46:41Z</time>
      </trkpt>
      <trkpt lat="47.32726" lon="-0.34785">
        <ele>53.4904785</ele>
        <time>2012-03-18T09:46:55Z</time>
      </trkpt>
      <trkpt lat="47.32725" lon="-0.34786">
        <ele>52.048584</ele>
        <time>2012-03-18T09:47:06Z</time>
      </trkpt>
      <trkpt lat="47.32725" lon="-0.34786">
        <ele>51.5678711</ele>
        <time>2012-03-18T09:47:15Z</time>
      </trkpt>
      <trkpt lat="47.32725" lon="-0.34786">
        <ele>51.0871582</ele>
        <time>2012-03-18T09:47:22Z</time>
      </trkpt>
      <trkpt lat="47.32725" lon="-0.34786">
        <ele>51.0871582</ele>
        <time>2012-03-18T09:47:24Z</time>
      </trkpt>
    </trkseg>
  </trk>
</gpx>